<?xml version="1.0" encoding="UTF-8" standalone="no" ?>
<gpx xmlns="http://www.topografix.com/GPX/1/1" xmlns:xsi="http://www.w3.org/2001/XMLSchema-instance" xsi:schemaLocation="http://www.topografix.com/GPX/1/1 http://www.topografix.com/GPX/1/1/gpx.xsd" version="1.1" creator="VisuGPX - https://www.visugpx.com">
  <metadata>
    <name>07. TMV1000 : Dabo- Struthof</name>
    <desc><![CDATA[13 juin 2021 à 16:57:56

{DC1}Heure de fin	: 
Durée totale	: 0h00:00
Moyenne globale	: -
Pente moyenne	: 4.08 %
Aire incluse	: 8508.7076 ha
Bornes emprise	: 48.6527 7.1492 ; 48.4538 7.2572
Détails par segments
distance  | durée    | vit.moy. | vit.max. | déniv. + | déniv -
   km     | hh:mn:ss |   km/h   |   km/h   |    m     |    m
    70.38 | 03:03:39 |     23.0 |    491.8 |     1530 |    -1340{DC2}

Metadata:
Nom: 1. Ensisheim-HK final TMV300-500 (16.04.21)
Auteur: (null)
Description: (null)
]]></desc>
  </metadata>
  <trk>
    <name><![CDATA[07. TMV1000 : Dabo- Struthof]]></name>
    <cmt><![CDATA[13 juin 2021 à 16:57:56]]></cmt>
    <desc><![CDATA[{DC1}Heure de fin	: 
Durée totale	: 0h00:00
Moyenne globale	: -
Pente moyenne	: 4.08 %
Aire incluse	: 8508.7076 ha
Bornes emprise	: 48.6527 7.1492 ; 48.4538 7.2572
Détails par segments
distance  | durée    | vit.moy. | vit.max. | déniv. + | déniv -
   km     | hh:mn:ss |   km/h   |   km/h   |    m     |    m
    70.38 | 03:03:39 |     23.0 |    491.8 |     1530 |    -1340{DC2}

Metadata:
Nom: 1. Ensisheim-HK final TMV300-500 (16.04.21)
Auteur: (null)
Description: (null)
]]></desc>
    <trkseg>
      <trkpt lat="48.64919" lon="7.24503">
        <ele>615</ele>
        <time>2020-12-20T13:58:34Z</time>
      </trkpt>
      <trkpt lat="48.64914" lon="7.24491">
        <ele>615</ele>
        <time>2020-12-20T13:58:36Z</time>
      </trkpt>
      <trkpt lat="48.64927" lon="7.24481">
        <ele>615</ele>
        <time>2020-12-20T13:58:38Z</time>
      </trkpt>
      <trkpt lat="48.64951" lon="7.24478">
        <ele>615</ele>
        <time>2020-12-20T13:58:43Z</time>
      </trkpt>
      <trkpt lat="48.64971" lon="7.24494">
        <ele>614</ele>
        <time>2020-12-20T13:58:47Z</time>
      </trkpt>
      <trkpt lat="48.64979" lon="7.24522">
        <ele>613</ele>
        <time>2020-12-20T13:58:51Z</time>
      </trkpt>
      <trkpt lat="48.64972" lon="7.24545">
        <ele>611</ele>
        <time>2020-12-20T13:58:53Z</time>
      </trkpt>
      <trkpt lat="48.64963" lon="7.24547">
        <ele>610</ele>
        <time>2020-12-20T13:58:55Z</time>
      </trkpt>
      <trkpt lat="48.64944" lon="7.24592">
        <ele>607</ele>
        <time>2020-12-20T13:59:00Z</time>
      </trkpt>
      <trkpt lat="48.64922" lon="7.24616">
        <ele>605</ele>
        <time>2020-12-20T13:59:03Z</time>
      </trkpt>
      <trkpt lat="48.64896" lon="7.24626">
        <ele>603</ele>
        <time>2020-12-20T13:59:06Z</time>
      </trkpt>
      <trkpt lat="48.64872" lon="7.24626">
        <ele>601</ele>
        <time>2020-12-20T13:59:10Z</time>
      </trkpt>
      <trkpt lat="48.6487" lon="7.24637">
        <ele>600</ele>
        <time>2020-12-20T13:59:12Z</time>
      </trkpt>
      <trkpt lat="48.64879" lon="7.2465">
        <ele>599</ele>
        <time>2020-12-20T13:59:14Z</time>
      </trkpt>
      <trkpt lat="48.64928" lon="7.24664">
        <ele>593</ele>
        <time>2020-12-20T13:59:25Z</time>
      </trkpt>
      <trkpt lat="48.65016" lon="7.24643">
        <ele>584</ele>
        <time>2020-12-20T13:59:43Z</time>
      </trkpt>
      <trkpt lat="48.65002" lon="7.24695">
        <ele>580</ele>
        <time>2020-12-20T13:59:52Z</time>
      </trkpt>
      <trkpt lat="48.6497" lon="7.24723">
        <ele>578</ele>
        <time>2020-12-20T13:59:56Z</time>
      </trkpt>
      <trkpt lat="48.64821" lon="7.24828">
        <ele>569</ele>
        <time>2020-12-20T14:00:18Z</time>
      </trkpt>
      <trkpt lat="48.64784" lon="7.24904">
        <ele>566</ele>
        <time>2020-12-20T14:00:28Z</time>
      </trkpt>
      <trkpt lat="48.64779" lon="7.24944">
        <ele>566</ele>
        <time>2020-12-20T14:00:32Z</time>
      </trkpt>
      <trkpt lat="48.64785" lon="7.25026">
        <ele>564</ele>
        <time>2020-12-20T14:00:40Z</time>
      </trkpt>
      <trkpt lat="48.64898" lon="7.25327">
        <ele>561</ele>
        <time>2020-12-20T14:01:21Z</time>
      </trkpt>
      <trkpt lat="48.64911" lon="7.2535">
        <ele>562</ele>
        <time>2020-12-20T14:01:26Z</time>
      </trkpt>
      <trkpt lat="48.64902" lon="7.25354">
        <ele>562</ele>
        <time>2020-12-20T14:01:30Z</time>
      </trkpt>
      <trkpt lat="48.64847" lon="7.25307">
        <ele>564</ele>
        <time>2020-12-20T14:02:04Z</time>
      </trkpt>
      <trkpt lat="48.64829" lon="7.25287">
        <ele>565</ele>
        <time>2020-12-20T14:02:18Z</time>
      </trkpt>
      <trkpt lat="48.64802" lon="7.2521">
        <ele>568</ele>
        <time>2020-12-20T14:02:54Z</time>
      </trkpt>
      <trkpt lat="48.64748" lon="7.2497">
        <ele>574</ele>
        <time>2020-12-20T14:04:32Z</time>
      </trkpt>
      <trkpt lat="48.64737" lon="7.24937">
        <ele>574</ele>
        <time>2020-12-20T14:04:41Z</time>
      </trkpt>
      <trkpt lat="48.64725" lon="7.24932">
        <ele>574</ele>
        <time>2020-12-20T14:04:48Z</time>
      </trkpt>
      <trkpt lat="48.64678" lon="7.24843">
        <ele>573</ele>
        <time>2020-12-20T14:05:08Z</time>
      </trkpt>
      <trkpt lat="48.64668" lon="7.24834">
        <ele>572</ele>
        <time>2020-12-20T14:05:11Z</time>
      </trkpt>
      <trkpt lat="48.64601" lon="7.24793">
        <ele>566</ele>
        <time>2020-12-20T14:05:24Z</time>
      </trkpt>
      <trkpt lat="48.64506" lon="7.24804">
        <ele>562</ele>
        <time>2020-12-20T14:05:32Z</time>
      </trkpt>
      <trkpt lat="48.6441" lon="7.2481">
        <ele>555</ele>
        <time>2020-12-20T14:05:43Z</time>
      </trkpt>
      <trkpt lat="48.64345" lon="7.24816">
        <ele>551</ele>
        <time>2020-12-20T14:05:50Z</time>
      </trkpt>
      <trkpt lat="48.64302" lon="7.24806">
        <ele>547</ele>
        <time>2020-12-20T14:05:55Z</time>
      </trkpt>
      <trkpt lat="48.64263" lon="7.2477">
        <ele>539</ele>
        <time>2020-12-20T14:06:06Z</time>
      </trkpt>
      <trkpt lat="48.64176" lon="7.24598">
        <ele>535</ele>
        <time>2020-12-20T14:06:12Z</time>
      </trkpt>
      <trkpt lat="48.64158" lon="7.2456">
        <ele>529</ele>
        <time>2020-12-20T14:06:19Z</time>
      </trkpt>
      <trkpt lat="48.64153" lon="7.2449">
        <ele>578.1</ele>
      </trkpt>
      <trkpt lat="48.64184" lon="7.24388">
        <ele>574.8</ele>
      </trkpt>
      <trkpt lat="48.64178" lon="7.24288">
        <ele>573.2</ele>
      </trkpt>
      <trkpt lat="48.64153" lon="7.2422">
        <ele>572.4</ele>
      </trkpt>
      <trkpt lat="48.64154" lon="7.24129">
        <ele>567.5</ele>
      </trkpt>
      <trkpt lat="48.6415" lon="7.24089">
        <ele>565.9</ele>
      </trkpt>
      <trkpt lat="48.64166" lon="7.23973">
        <ele>561</ele>
      </trkpt>
      <trkpt lat="48.64159" lon="7.23842">
        <ele>501</ele>
        <time>2020-12-20T14:07:04Z</time>
      </trkpt>
      <trkpt lat="48.64128" lon="7.23714">
        <ele>487</ele>
        <time>2020-12-20T14:07:43Z</time>
      </trkpt>
      <trkpt lat="48.64091" lon="7.23636">
        <ele>548.4</ele>
      </trkpt>
      <trkpt lat="48.64072" lon="7.23493">
        <ele>543.8</ele>
      </trkpt>
      <trkpt lat="48.64088" lon="7.23317">
        <ele>485</ele>
        <time>2020-12-20T14:13:39Z</time>
      </trkpt>
      <trkpt lat="48.64127" lon="7.2309">
        <ele>474</ele>
        <time>2020-12-20T14:15:09Z</time>
      </trkpt>
      <trkpt lat="48.64075" lon="7.22966">
        <ele>519</ele>
      </trkpt>
      <trkpt lat="48.6404" lon="7.22921">
        <ele>513.6</ele>
      </trkpt>
      <trkpt lat="48.64013" lon="7.22764">
        <ele>461</ele>
        <time>2020-12-20T14:17:11Z</time>
      </trkpt>
      <trkpt lat="48.64007" lon="7.2253">
        <ele>458</ele>
        <time>2020-12-20T14:17:34Z</time>
      </trkpt>
      <trkpt lat="48.64028" lon="7.22279">
        <ele>455</ele>
        <time>2020-12-20T14:17:54Z</time>
      </trkpt>
      <trkpt lat="48.64065" lon="7.22176">
        <ele>486.4</ele>
      </trkpt>
      <trkpt lat="48.64179" lon="7.22059">
        <ele>479.4</ele>
      </trkpt>
      <trkpt lat="48.64243" lon="7.22029">
        <ele>451</ele>
        <time>2020-12-20T14:18:28Z</time>
      </trkpt>
      <trkpt lat="48.64342" lon="7.22022">
        <ele>449</ele>
        <time>2020-12-20T14:18:44Z</time>
      </trkpt>
      <trkpt lat="48.64354" lon="7.21952">
        <ele>448</ele>
        <time>2020-12-20T14:18:47Z</time>
      </trkpt>
      <trkpt lat="48.64348" lon="7.21822">
        <ele>448</ele>
        <time>2020-12-20T14:18:51Z</time>
      </trkpt>
      <trkpt lat="48.64366" lon="7.21748">
        <ele>445</ele>
        <time>2020-12-20T14:19:09Z</time>
      </trkpt>
      <trkpt lat="48.64474" lon="7.21673">
        <ele>441</ele>
        <time>2020-12-20T14:19:31Z</time>
      </trkpt>
      <trkpt lat="48.64604" lon="7.21668">
        <ele>437</ele>
        <time>2020-12-20T14:20:06Z</time>
      </trkpt>
      <trkpt lat="48.64658" lon="7.21601">
        <ele>435</ele>
        <time>2020-12-20T14:20:39Z</time>
      </trkpt>
      <trkpt lat="48.64732" lon="7.21515">
        <ele>435</ele>
        <time>2020-12-20T14:20:55Z</time>
      </trkpt>
      <trkpt lat="48.64716" lon="7.21401">
        <ele>435</ele>
        <time>2020-12-20T14:21:01Z</time>
      </trkpt>
      <trkpt lat="48.64693" lon="7.21319">
        <ele>434</ele>
        <time>2020-12-20T14:21:20Z</time>
      </trkpt>
      <trkpt lat="48.64686" lon="7.21162">
        <ele>434</ele>
        <time>2020-12-20T14:21:32Z</time>
      </trkpt>
      <trkpt lat="48.6471" lon="7.21037">
        <ele>433</ele>
        <time>2020-12-20T14:22:02Z</time>
      </trkpt>
      <trkpt lat="48.64753" lon="7.20949">
        <ele>433</ele>
        <time>2020-12-20T14:22:23Z</time>
      </trkpt>
      <trkpt lat="48.64887" lon="7.20791">
        <ele>431</ele>
        <time>2020-12-20T14:22:38Z</time>
      </trkpt>
      <trkpt lat="48.64895" lon="7.20733">
        <ele>426</ele>
        <time>2020-12-20T14:22:54Z</time>
      </trkpt>
      <trkpt lat="48.64897" lon="7.20661">
        <ele>424</ele>
        <time>2020-12-20T14:23:01Z</time>
      </trkpt>
      <trkpt lat="48.64925" lon="7.20581">
        <ele>422</ele>
        <time>2020-12-20T14:23:10Z</time>
      </trkpt>
      <trkpt lat="48.64967" lon="7.20524">
        <ele>419</ele>
        <time>2020-12-20T14:23:20Z</time>
      </trkpt>
      <trkpt lat="48.65049" lon="7.2054">
        <ele>416</ele>
        <time>2020-12-20T14:23:28Z</time>
      </trkpt>
      <trkpt lat="48.65123" lon="7.20626">
        <ele>411</ele>
        <time>2020-12-20T14:23:42Z</time>
      </trkpt>
      <trkpt lat="48.65219" lon="7.20794">
        <ele>397</ele>
      </trkpt>
      <trkpt lat="48.65234" lon="7.20861">
        <ele>402</ele>
        <time>2020-12-20T14:24:12Z</time>
      </trkpt>
      <trkpt lat="48.65235" lon="7.20791">
        <ele>400</ele>
        <time>2020-12-20T14:24:19Z</time>
      </trkpt>
      <trkpt lat="48.6525" lon="7.20649">
        <ele>393</ele>
        <time>2020-12-20T14:24:41Z</time>
      </trkpt>
      <trkpt lat="48.65268" lon="7.20635">
        <ele>391</ele>
        <time>2020-12-20T14:24:45Z</time>
      </trkpt>
      <trkpt lat="48.65228" lon="7.20501">
        <ele>386</ele>
        <time>2020-12-20T14:24:59Z</time>
      </trkpt>
      <trkpt lat="48.65101" lon="7.20425">
        <ele>384</ele>
        <time>2020-12-20T14:25:07Z</time>
      </trkpt>
      <trkpt lat="48.65012" lon="7.2035">
        <ele>382</ele>
        <time>2020-12-20T14:25:11Z</time>
      </trkpt>
      <trkpt lat="48.64963" lon="7.20351">
        <ele>376</ele>
        <time>2020-12-20T14:25:31Z</time>
      </trkpt>
      <trkpt lat="48.64827" lon="7.20383">
        <ele>369</ele>
        <time>2020-12-20T14:25:53Z</time>
      </trkpt>
      <trkpt lat="48.64751" lon="7.20408">
        <ele>355</ele>
        <time>2020-12-20T14:26:19Z</time>
      </trkpt>
      <trkpt lat="48.64682" lon="7.20466">
        <ele>333.5</ele>
      </trkpt>
      <trkpt lat="48.64657" lon="7.20525">
        <ele>333.6</ele>
      </trkpt>
      <trkpt lat="48.64653" lon="7.20572">
        <ele>343</ele>
        <time>2020-12-20T14:26:37Z</time>
      </trkpt>
      <trkpt lat="48.64617" lon="7.20568">
        <ele>327</ele>
      </trkpt>
      <trkpt lat="48.64597" lon="7.20563">
        <ele>321.9</ele>
      </trkpt>
      <trkpt lat="48.64557" lon="7.20615">
        <ele>321.1</ele>
      </trkpt>
      <trkpt lat="48.64539" lon="7.20614">
        <ele>331</ele>
        <time>2020-12-20T14:26:55Z</time>
      </trkpt>
      <trkpt lat="48.64571" lon="7.20555">
        <ele>315.3</ele>
      </trkpt>
      <trkpt lat="48.64611" lon="7.20515">
        <ele>318.3</ele>
      </trkpt>
      <trkpt lat="48.64686" lon="7.20339">
        <ele>310.6</ele>
      </trkpt>
      <trkpt lat="48.64834" lon="7.20239">
        <ele>330</ele>
        <time>2020-12-20T14:26:56Z</time>
      </trkpt>
      <trkpt lat="48.64876" lon="7.20143">
        <ele>325</ele>
        <time>2020-12-20T14:27:03Z</time>
      </trkpt>
      <trkpt lat="48.64879" lon="7.20115">
        <ele>320</ele>
        <time>2020-12-20T14:27:16Z</time>
      </trkpt>
      <trkpt lat="48.64847" lon="7.20085">
        <ele>319</ele>
        <time>2020-12-20T14:27:25Z</time>
      </trkpt>
      <trkpt lat="48.64838" lon="7.20065">
        <ele>319</ele>
        <time>2020-12-20T14:27:28Z</time>
      </trkpt>
      <trkpt lat="48.64828" lon="7.20074">
        <ele>319</ele>
        <time>2020-12-20T14:27:32Z</time>
      </trkpt>
      <trkpt lat="48.64818" lon="7.20067">
        <ele>318</ele>
        <time>2020-12-20T14:27:35Z</time>
      </trkpt>
      <trkpt lat="48.64799" lon="7.20045">
        <ele>318</ele>
        <time>2020-12-20T14:27:41Z</time>
      </trkpt>
      <trkpt lat="48.64737" lon="7.1994">
        <ele>319</ele>
        <time>2020-12-20T14:28:19Z</time>
      </trkpt>
      <trkpt lat="48.64703" lon="7.19838">
        <ele>323</ele>
        <time>2020-12-20T14:28:56Z</time>
      </trkpt>
      <trkpt lat="48.647" lon="7.19805">
        <ele>324</ele>
        <time>2020-12-20T14:29:07Z</time>
      </trkpt>
      <trkpt lat="48.64731" lon="7.19638">
        <ele>332</ele>
        <time>2020-12-20T14:30:09Z</time>
      </trkpt>
      <trkpt lat="48.64736" lon="7.19591">
        <ele>334</ele>
        <time>2020-12-20T14:30:26Z</time>
      </trkpt>
      <trkpt lat="48.64729" lon="7.19564">
        <ele>335</ele>
        <time>2020-12-20T14:30:35Z</time>
      </trkpt>
      <trkpt lat="48.64722" lon="7.19558">
        <ele>336</ele>
        <time>2020-12-20T14:30:39Z</time>
      </trkpt>
      <trkpt lat="48.64671" lon="7.19572">
        <ele>339</ele>
        <time>2020-12-20T14:31:06Z</time>
      </trkpt>
      <trkpt lat="48.64648" lon="7.19606">
        <ele>343</ele>
        <time>2020-12-20T14:31:25Z</time>
      </trkpt>
      <trkpt lat="48.64631" lon="7.19612">
        <ele>345</ele>
        <time>2020-12-20T14:31:37Z</time>
      </trkpt>
      <trkpt lat="48.64617" lon="7.19603">
        <ele>347</ele>
        <time>2020-12-20T14:31:47Z</time>
      </trkpt>
      <trkpt lat="48.64604" lon="7.19562">
        <ele>350</ele>
        <time>2020-12-20T14:32:10Z</time>
      </trkpt>
      <trkpt lat="48.64602" lon="7.19524">
        <ele>353</ele>
        <time>2020-12-20T14:32:34Z</time>
      </trkpt>
      <trkpt lat="48.64609" lon="7.19462">
        <ele>358</ele>
        <time>2020-12-20T14:33:12Z</time>
      </trkpt>
      <trkpt lat="48.64614" lon="7.19347">
        <ele>368</ele>
        <time>2020-12-20T14:34:24Z</time>
      </trkpt>
      <trkpt lat="48.64613" lon="7.1925">
        <ele>377</ele>
        <time>2020-12-20T14:35:29Z</time>
      </trkpt>
      <trkpt lat="48.64604" lon="7.19214">
        <ele>381</ele>
        <time>2020-12-20T14:35:52Z</time>
      </trkpt>
      <trkpt lat="48.64585" lon="7.19168">
        <ele>386</ele>
        <time>2020-12-20T14:36:23Z</time>
      </trkpt>
      <trkpt lat="48.64571" lon="7.19152">
        <ele>387</ele>
        <time>2020-12-20T14:36:35Z</time>
      </trkpt>
      <trkpt lat="48.64554" lon="7.19156">
        <ele>388</ele>
        <time>2020-12-20T14:36:47Z</time>
      </trkpt>
      <trkpt lat="48.64528" lon="7.19184">
        <ele>390</ele>
        <time>2020-12-20T14:37:04Z</time>
      </trkpt>
      <trkpt lat="48.64457" lon="7.19294">
        <ele>395</ele>
        <time>2020-12-20T14:37:43Z</time>
      </trkpt>
      <trkpt lat="48.64443" lon="7.19296">
        <ele>396</ele>
        <time>2020-12-20T14:37:47Z</time>
      </trkpt>
      <trkpt lat="48.6439" lon="7.1924">
        <ele>396</ele>
        <time>2020-12-20T14:38:00Z</time>
      </trkpt>
      <trkpt lat="48.64273" lon="7.19059">
        <ele>399</ele>
        <time>2020-12-20T14:38:40Z</time>
      </trkpt>
      <trkpt lat="48.64192" lon="7.18883">
        <ele>404</ele>
        <time>2020-12-20T14:39:35Z</time>
      </trkpt>
      <trkpt lat="48.6418" lon="7.1881">
        <ele>407</ele>
        <time>2020-12-20T14:40:00Z</time>
      </trkpt>
      <trkpt lat="48.64163" lon="7.18793">
        <ele>408</ele>
        <time>2020-12-20T14:40:11Z</time>
      </trkpt>
      <trkpt lat="48.64129" lon="7.18805">
        <ele>410</ele>
        <time>2020-12-20T14:40:30Z</time>
      </trkpt>
      <trkpt lat="48.64072" lon="7.18854">
        <ele>414</ele>
        <time>2020-12-20T14:41:06Z</time>
      </trkpt>
      <trkpt lat="48.64034" lon="7.18858">
        <ele>417</ele>
        <time>2020-12-20T14:41:28Z</time>
      </trkpt>
      <trkpt lat="48.64" lon="7.18832">
        <ele>419</ele>
        <time>2020-12-20T14:41:50Z</time>
      </trkpt>
      <trkpt lat="48.63922" lon="7.18706">
        <ele>426</ele>
        <time>2020-12-20T14:42:49Z</time>
      </trkpt>
      <trkpt lat="48.63912" lon="7.187">
        <ele>426</ele>
        <time>2020-12-20T14:42:53Z</time>
      </trkpt>
      <trkpt lat="48.6389" lon="7.18715">
        <ele>426</ele>
        <time>2020-12-20T14:43:03Z</time>
      </trkpt>
      <trkpt lat="48.63873" lon="7.18755">
        <ele>427</ele>
        <time>2020-12-20T14:43:12Z</time>
      </trkpt>
      <trkpt lat="48.63849" lon="7.18874">
        <ele>428</ele>
        <time>2020-12-20T14:43:28Z</time>
      </trkpt>
      <trkpt lat="48.63837" lon="7.18888">
        <ele>428</ele>
        <time>2020-12-20T14:43:30Z</time>
      </trkpt>
      <trkpt lat="48.63812" lon="7.18882">
        <ele>427</ele>
        <time>2020-12-20T14:43:34Z</time>
      </trkpt>
      <trkpt lat="48.63732" lon="7.18811">
        <ele>423</ele>
        <time>2020-12-20T14:43:48Z</time>
      </trkpt>
      <trkpt lat="48.63666" lon="7.18795">
        <ele>420</ele>
        <time>2020-12-20T14:43:57Z</time>
      </trkpt>
      <trkpt lat="48.63623" lon="7.18762">
        <ele>419</ele>
        <time>2020-12-20T14:44:04Z</time>
      </trkpt>
      <trkpt lat="48.63576" lon="7.187">
        <ele>417</ele>
        <time>2020-12-20T14:44:14Z</time>
      </trkpt>
      <trkpt lat="48.63476" lon="7.18434">
        <ele>417</ele>
        <time>2020-12-20T14:44:59Z</time>
      </trkpt>
      <trkpt lat="48.63461" lon="7.18393">
        <ele>418</ele>
        <time>2020-12-20T14:45:11Z</time>
      </trkpt>
      <trkpt lat="48.63443" lon="7.18274">
        <ele>423</ele>
        <time>2020-12-20T14:45:49Z</time>
      </trkpt>
      <trkpt lat="48.63415" lon="7.18164">
        <ele>428</ele>
        <time>2020-12-20T14:46:35Z</time>
      </trkpt>
      <trkpt lat="48.63477" lon="7.18285">
        <ele>436</ele>
        <time>2020-12-20T14:47:49Z</time>
      </trkpt>
      <trkpt lat="48.63493" lon="7.18317">
        <ele>439</ele>
        <time>2020-12-20T14:48:09Z</time>
      </trkpt>
      <trkpt lat="48.63576" lon="7.18459">
        <ele>451</ele>
        <time>2020-12-20T14:49:48Z</time>
      </trkpt>
      <trkpt lat="48.63686" lon="7.18624">
        <ele>468</ele>
        <time>2020-12-20T14:52:06Z</time>
      </trkpt>
      <trkpt lat="48.63706" lon="7.18643">
        <ele>472</ele>
        <time>2020-12-20T14:52:30Z</time>
      </trkpt>
      <trkpt lat="48.63737" lon="7.1865">
        <ele>476</ele>
        <time>2020-12-20T14:53:01Z</time>
      </trkpt>
      <trkpt lat="48.63762" lon="7.18643">
        <ele>480</ele>
        <time>2020-12-20T14:53:29Z</time>
      </trkpt>
      <trkpt lat="48.63777" lon="7.18628">
        <ele>482</ele>
        <time>2020-12-20T14:53:48Z</time>
      </trkpt>
      <trkpt lat="48.638" lon="7.18528">
        <ele>492</ele>
        <time>2020-12-20T14:55:04Z</time>
      </trkpt>
      <trkpt lat="48.63808" lon="7.18505">
        <ele>494</ele>
        <time>2020-12-20T14:55:23Z</time>
      </trkpt>
      <trkpt lat="48.63838" lon="7.18464">
        <ele>499</ele>
        <time>2020-12-20T14:56:03Z</time>
      </trkpt>
      <trkpt lat="48.63922" lon="7.18357">
        <ele>505</ele>
        <time>2020-12-20T14:56:51Z</time>
      </trkpt>
      <trkpt lat="48.63909" lon="7.18342">
        <ele>509</ele>
        <time>2020-12-20T14:57:24Z</time>
      </trkpt>
      <trkpt lat="48.63852" lon="7.18329">
        <ele>511.5</ele>
      </trkpt>
      <trkpt lat="48.6379" lon="7.18374">
        <ele>514</ele>
      </trkpt>
      <trkpt lat="48.63738" lon="7.18363">
        <ele>514</ele>
        <time>2020-12-20T14:58:00Z</time>
      </trkpt>
      <trkpt lat="48.63723" lon="7.18277">
        <ele>516</ele>
        <time>2020-12-20T14:58:32Z</time>
      </trkpt>
      <trkpt lat="48.6367" lon="7.18173">
        <ele>519</ele>
        <time>2020-12-20T14:59:11Z</time>
      </trkpt>
      <trkpt lat="48.63665" lon="7.18163">
        <ele>520</ele>
        <time>2020-12-20T14:59:15Z</time>
      </trkpt>
      <trkpt lat="48.6358" lon="7.17983">
        <ele>520</ele>
        <time>2020-12-20T14:59:59Z</time>
      </trkpt>
      <trkpt lat="48.63568" lon="7.17954">
        <ele>519</ele>
        <time>2020-12-20T15:00:06Z</time>
      </trkpt>
      <trkpt lat="48.63491" lon="7.17827">
        <ele>520</ele>
        <time>2020-12-20T15:00:41Z</time>
      </trkpt>
      <trkpt lat="48.6341" lon="7.17697">
        <ele>521</ele>
        <time>2020-12-20T15:01:22Z</time>
      </trkpt>
      <trkpt lat="48.63306" lon="7.1754">
        <ele>521</ele>
        <time>2020-12-20T15:01:28Z</time>
      </trkpt>
      <trkpt lat="48.6322" lon="7.17429">
        <ele>525</ele>
        <time>2020-12-20T15:02:22Z</time>
      </trkpt>
      <trkpt lat="48.63172" lon="7.1739">
        <ele>527</ele>
        <time>2020-12-20T15:02:50Z</time>
      </trkpt>
      <trkpt lat="48.6311" lon="7.1739">
        <ele>529</ele>
        <time>2020-12-20T15:03:17Z</time>
      </trkpt>
      <trkpt lat="48.63056" lon="7.1743">
        <ele>533</ele>
        <time>2020-12-20T15:04:03Z</time>
      </trkpt>
      <trkpt lat="48.62949" lon="7.17416">
        <ele>537</ele>
        <time>2020-12-20T15:04:50Z</time>
      </trkpt>
      <trkpt lat="48.62915" lon="7.1744">
        <ele>540</ele>
        <time>2020-12-20T15:05:21Z</time>
      </trkpt>
      <trkpt lat="48.62835" lon="7.17568">
        <ele>542</ele>
        <time>2020-12-20T15:05:47Z</time>
      </trkpt>
      <trkpt lat="48.6278" lon="7.17635">
        <ele>543</ele>
        <time>2020-12-20T15:06:03Z</time>
      </trkpt>
      <trkpt lat="48.62748" lon="7.177">
        <ele>544</ele>
        <time>2020-12-20T15:06:37Z</time>
      </trkpt>
      <trkpt lat="48.62684" lon="7.17744">
        <ele>545</ele>
        <time>2020-12-20T15:07:25Z</time>
      </trkpt>
      <trkpt lat="48.62633" lon="7.1776">
        <ele>505</ele>
        <time>2020-12-20T15:10:47Z</time>
      </trkpt>
      <trkpt lat="48.62607" lon="7.17778">
        <ele>505</ele>
        <time>2020-12-20T15:10:52Z</time>
      </trkpt>
      <trkpt lat="48.62575" lon="7.17806">
        <ele>505</ele>
        <time>2020-12-20T15:10:59Z</time>
      </trkpt>
      <trkpt lat="48.6256" lon="7.17813">
        <ele>505</ele>
        <time>2020-12-20T15:11:05Z</time>
      </trkpt>
      <trkpt lat="48.62532" lon="7.17823">
        <ele>510</ele>
        <time>2020-12-20T15:11:55Z</time>
      </trkpt>
      <trkpt lat="48.62466" lon="7.17804">
        <ele>515</ele>
        <time>2020-12-20T15:12:40Z</time>
      </trkpt>
      <trkpt lat="48.62387" lon="7.17791">
        <ele>519</ele>
        <time>2020-12-20T15:13:20Z</time>
      </trkpt>
      <trkpt lat="48.6228" lon="7.17797">
        <ele>525</ele>
        <time>2020-12-20T15:14:33Z</time>
      </trkpt>
      <trkpt lat="48.62166" lon="7.17832">
        <ele>528</ele>
        <time>2020-12-20T15:15:05Z</time>
      </trkpt>
      <trkpt lat="48.62135" lon="7.17854">
        <ele>529</ele>
        <time>2020-12-20T15:15:32Z</time>
      </trkpt>
      <trkpt lat="48.62094" lon="7.17966">
        <ele>526</ele>
        <time>2020-12-20T15:16:04Z</time>
      </trkpt>
      <trkpt lat="48.62047" lon="7.18001">
        <ele>521</ele>
        <time>2020-12-20T15:16:30Z</time>
      </trkpt>
      <trkpt lat="48.61981" lon="7.17998">
        <ele>519</ele>
        <time>2020-12-20T15:16:41Z</time>
      </trkpt>
      <trkpt lat="48.6188" lon="7.17962">
        <ele>517</ele>
        <time>2020-12-20T15:16:47Z</time>
      </trkpt>
      <trkpt lat="48.61843" lon="7.17955">
        <ele>514</ele>
        <time>2020-12-20T15:17:41Z</time>
      </trkpt>
      <trkpt lat="48.61753" lon="7.17938">
        <ele>518</ele>
        <time>2020-12-20T15:18:35Z</time>
      </trkpt>
      <trkpt lat="48.61697" lon="7.17891">
        <ele>521</ele>
        <time>2020-12-20T15:19:09Z</time>
      </trkpt>
      <trkpt lat="48.61623" lon="7.17877">
        <ele>523</ele>
        <time>2020-12-20T15:19:50Z</time>
      </trkpt>
      <trkpt lat="48.61645" lon="7.17904">
        <ele>524</ele>
        <time>2020-12-20T15:20:04Z</time>
      </trkpt>
      <trkpt lat="48.61663" lon="7.17977">
        <ele>525</ele>
        <time>2020-12-20T15:20:26Z</time>
      </trkpt>
      <trkpt lat="48.6166" lon="7.18027">
        <ele>526</ele>
        <time>2020-12-20T15:20:38Z</time>
      </trkpt>
      <trkpt lat="48.61655" lon="7.1805">
        <ele>526</ele>
        <time>2020-12-20T15:20:44Z</time>
      </trkpt>
      <trkpt lat="48.61611" lon="7.18127">
        <ele>527</ele>
        <time>2020-12-20T15:21:04Z</time>
      </trkpt>
      <trkpt lat="48.61562" lon="7.18168">
        <ele>527</ele>
        <time>2020-12-20T15:21:21Z</time>
      </trkpt>
      <trkpt lat="48.61567" lon="7.18184">
        <ele>532</ele>
        <time>2020-12-20T15:22:26Z</time>
      </trkpt>
      <trkpt lat="48.6154" lon="7.18191">
        <ele>533</ele>
        <time>2020-12-20T15:22:35Z</time>
      </trkpt>
      <trkpt lat="48.61414" lon="7.1818">
        <ele>537</ele>
        <time>2020-12-20T15:23:31Z</time>
      </trkpt>
      <trkpt lat="48.61383" lon="7.18238">
        <ele>538</ele>
        <time>2020-12-20T15:23:44Z</time>
      </trkpt>
      <trkpt lat="48.61361" lon="7.18324">
        <ele>542</ele>
        <time>2020-12-20T15:24:21Z</time>
      </trkpt>
      <trkpt lat="48.61365" lon="7.18439">
        <ele>544</ele>
        <time>2020-12-20T15:24:43Z</time>
      </trkpt>
      <trkpt lat="48.61367" lon="7.18503">
        <ele>546</ele>
        <time>2020-12-20T15:24:59Z</time>
      </trkpt>
      <trkpt lat="48.61331" lon="7.18534">
        <ele>549</ele>
        <time>2020-12-20T15:25:28Z</time>
      </trkpt>
      <trkpt lat="48.61265" lon="7.18505">
        <ele>550</ele>
        <time>2020-12-20T15:25:48Z</time>
      </trkpt>
      <trkpt lat="48.61202" lon="7.18476">
        <ele>551</ele>
        <time>2020-12-20T15:26:01Z</time>
      </trkpt>
      <trkpt lat="48.61142" lon="7.18473">
        <ele>551</ele>
        <time>2020-12-20T15:26:13Z</time>
      </trkpt>
      <trkpt lat="48.61044" lon="7.18485">
        <ele>552</ele>
        <time>2020-12-20T15:26:49Z</time>
      </trkpt>
      <trkpt lat="48.6097" lon="7.18442">
        <ele>551</ele>
        <time>2020-12-20T15:27:00Z</time>
      </trkpt>
      <trkpt lat="48.60876" lon="7.18336">
        <ele>549</ele>
        <time>2020-12-20T15:27:05Z</time>
      </trkpt>
      <trkpt lat="48.6084" lon="7.18326">
        <ele>542</ele>
        <time>2020-12-20T15:27:30Z</time>
      </trkpt>
      <trkpt lat="48.60805" lon="7.18336">
        <ele>539</ele>
        <time>2020-12-20T15:27:44Z</time>
      </trkpt>
      <trkpt lat="48.60751" lon="7.18433">
        <ele>537</ele>
        <time>2020-12-20T15:27:58Z</time>
      </trkpt>
      <trkpt lat="48.60719" lon="7.1854">
        <ele>534</ele>
        <time>2020-12-20T15:28:19Z</time>
      </trkpt>
      <trkpt lat="48.607" lon="7.1876">
        <ele>538</ele>
        <time>2020-12-20T15:29:31Z</time>
      </trkpt>
      <trkpt lat="48.60662" lon="7.18781">
        <ele>539</ele>
        <time>2020-12-20T15:29:49Z</time>
      </trkpt>
      <trkpt lat="48.60589" lon="7.18758">
        <ele>541</ele>
        <time>2020-12-20T15:30:22Z</time>
      </trkpt>
      <trkpt lat="48.60508" lon="7.18707">
        <ele>542</ele>
        <time>2020-12-20T15:30:35Z</time>
      </trkpt>
      <trkpt lat="48.60445" lon="7.18686">
        <ele>545</ele>
        <time>2020-12-20T15:31:16Z</time>
      </trkpt>
      <trkpt lat="48.60369" lon="7.18728">
        <ele>556</ele>
        <time>2020-12-20T15:33:07Z</time>
      </trkpt>
      <trkpt lat="48.60327" lon="7.18673">
        <ele>565</ele>
        <time>2020-12-20T15:34:23Z</time>
      </trkpt>
      <trkpt lat="48.60259" lon="7.18615">
        <ele>570</ele>
        <time>2020-12-20T15:35:04Z</time>
      </trkpt>
      <trkpt lat="48.6021" lon="7.18486">
        <ele>572</ele>
        <time>2020-12-20T15:35:24Z</time>
      </trkpt>
      <trkpt lat="48.60145" lon="7.18368">
        <ele>575</ele>
        <time>2020-12-20T15:35:42Z</time>
      </trkpt>
      <trkpt lat="48.60087" lon="7.18315">
        <ele>580</ele>
        <time>2020-12-20T15:36:20Z</time>
      </trkpt>
      <trkpt lat="48.60052" lon="7.18263">
        <ele>584</ele>
        <time>2020-12-20T15:36:51Z</time>
      </trkpt>
      <trkpt lat="48.60091" lon="7.17957">
        <ele>591</ele>
        <time>2020-12-20T15:37:47Z</time>
      </trkpt>
      <trkpt lat="48.6003" lon="7.17538">
        <ele>546.8</ele>
      </trkpt>
      <trkpt lat="48.60007" lon="7.17255">
        <ele>533.6</ele>
      </trkpt>
      <trkpt lat="48.6" lon="7.17049">
        <ele>599</ele>
        <time>2020-12-20T15:38:54Z</time>
      </trkpt>
      <trkpt lat="48.59974" lon="7.17203">
        <ele>522.9</ele>
      </trkpt>
      <trkpt lat="48.59981" lon="7.1734">
        <ele>530.8</ele>
      </trkpt>
      <trkpt lat="48.59967" lon="7.17512">
        <ele>536.3</ele>
      </trkpt>
      <trkpt lat="48.59969" lon="7.17737">
        <ele>544.4</ele>
      </trkpt>
      <trkpt lat="48.59927" lon="7.17816">
        <ele>551.7</ele>
      </trkpt>
      <trkpt lat="48.59788" lon="7.17885">
        <ele>614</ele>
        <time>2020-12-20T15:40:47Z</time>
      </trkpt>
      <trkpt lat="48.59729" lon="7.17966">
        <ele>551.5</ele>
      </trkpt>
      <trkpt lat="48.59701" lon="7.18089">
        <ele>618</ele>
        <time>2020-12-20T15:41:23Z</time>
      </trkpt>
      <trkpt lat="48.59678" lon="7.18338">
        <ele>561.4</ele>
      </trkpt>
      <trkpt lat="48.59691" lon="7.18659">
        <ele>622</ele>
        <time>2020-12-20T15:42:12Z</time>
      </trkpt>
      <trkpt lat="48.59652" lon="7.18904">
        <ele>623</ele>
        <time>2020-12-20T15:42:26Z</time>
      </trkpt>
      <trkpt lat="48.59624" lon="7.18976">
        <ele>624</ele>
        <time>2020-12-20T15:42:34Z</time>
      </trkpt>
      <trkpt lat="48.59576" lon="7.18988">
        <ele>657</ele>
        <time>2020-12-20T15:48:31Z</time>
      </trkpt>
      <trkpt lat="48.59489" lon="7.18834">
        <ele>605.8</ele>
      </trkpt>
      <trkpt lat="48.59416" lon="7.18632">
        <ele>611.4</ele>
      </trkpt>
      <trkpt lat="48.59336" lon="7.18497">
        <ele>618.5</ele>
      </trkpt>
      <trkpt lat="48.59302" lon="7.18458">
        <ele>660</ele>
        <time>2020-12-20T15:48:53Z</time>
      </trkpt>
      <trkpt lat="48.59256" lon="7.18462">
        <ele>667</ele>
        <time>2020-12-20T15:49:56Z</time>
      </trkpt>
      <trkpt lat="48.59178" lon="7.18534">
        <ele>674</ele>
        <time>2020-12-20T15:50:45Z</time>
      </trkpt>
      <trkpt lat="48.59137" lon="7.1862">
        <ele>684</ele>
        <time>2020-12-20T15:51:54Z</time>
      </trkpt>
      <trkpt lat="48.59082" lon="7.1884">
        <ele>688</ele>
        <time>2020-12-20T15:52:26Z</time>
      </trkpt>
      <trkpt lat="48.59046" lon="7.18932">
        <ele>702</ele>
        <time>2020-12-20T15:54:41Z</time>
      </trkpt>
      <trkpt lat="48.58993" lon="7.19025">
        <ele>708</ele>
        <time>2020-12-20T15:55:23Z</time>
      </trkpt>
      <trkpt lat="48.58931" lon="7.1929">
        <ele>713</ele>
        <time>2020-12-20T15:56:00Z</time>
      </trkpt>
      <trkpt lat="48.58931" lon="7.19529">
        <ele>713</ele>
        <time>2020-12-20T15:56:16Z</time>
      </trkpt>
      <trkpt lat="48.58887" lon="7.19628">
        <ele>713</ele>
        <time>2020-12-20T15:56:48Z</time>
      </trkpt>
      <trkpt lat="48.58784" lon="7.19667">
        <ele>711</ele>
        <time>2020-12-20T15:57:07Z</time>
      </trkpt>
      <trkpt lat="48.58694" lon="7.19681">
        <ele>709</ele>
        <time>2020-12-20T15:57:26Z</time>
      </trkpt>
      <trkpt lat="48.58614" lon="7.19715">
        <ele>702</ele>
        <time>2020-12-20T15:58:11Z</time>
      </trkpt>
      <trkpt lat="48.58527" lon="7.19868">
        <ele>700</ele>
        <time>2020-12-20T15:58:26Z</time>
      </trkpt>
      <trkpt lat="48.58475" lon="7.19992">
        <ele>700</ele>
        <time>2020-12-20T15:58:45Z</time>
      </trkpt>
      <trkpt lat="48.58414" lon="7.20102">
        <ele>700</ele>
        <time>2020-12-20T15:59:10Z</time>
      </trkpt>
      <trkpt lat="48.58355" lon="7.20135">
        <ele>706</ele>
        <time>2020-12-20T16:00:12Z</time>
      </trkpt>
      <trkpt lat="48.58315" lon="7.20168">
        <ele>716</ele>
        <time>2020-12-20T16:01:50Z</time>
      </trkpt>
      <trkpt lat="48.58235" lon="7.20099">
        <ele>726</ele>
        <time>2020-12-20T16:03:13Z</time>
      </trkpt>
      <trkpt lat="48.58178" lon="7.2005">
        <ele>732</ele>
        <time>2020-12-20T16:04:00Z</time>
      </trkpt>
      <trkpt lat="48.581" lon="7.20037">
        <ele>741</ele>
        <time>2020-12-20T16:05:11Z</time>
      </trkpt>
      <trkpt lat="48.5802" lon="7.20047">
        <ele>746</ele>
        <time>2020-12-20T16:05:53Z</time>
      </trkpt>
      <trkpt lat="48.57954" lon="7.20027">
        <ele>736.2</ele>
      </trkpt>
      <trkpt lat="48.57907" lon="7.20012">
        <ele>740.4</ele>
      </trkpt>
      <trkpt lat="48.5794" lon="7.19821">
        <ele>736.6</ele>
      </trkpt>
      <trkpt lat="48.58077" lon="7.19414">
        <ele>747</ele>
        <time>2020-12-20T16:06:05Z</time>
      </trkpt>
      <trkpt lat="48.58157" lon="7.19218">
        <ele>719.1</ele>
      </trkpt>
      <trkpt lat="48.58211" lon="7.1915">
        <ele>701.2</ele>
      </trkpt>
      <trkpt lat="48.58285" lon="7.19122">
        <ele>681.1</ele>
      </trkpt>
      <trkpt lat="48.5837" lon="7.19017">
        <ele>679.5</ele>
      </trkpt>
      <trkpt lat="48.5842" lon="7.1888">
        <ele>685.5</ele>
      </trkpt>
      <trkpt lat="48.58456" lon="7.1864">
        <ele>678.6</ele>
      </trkpt>
      <trkpt lat="48.58466" lon="7.1856">
        <ele>675</ele>
      </trkpt>
      <trkpt lat="48.58446" lon="7.18462">
        <ele>671.2</ele>
      </trkpt>
      <trkpt lat="48.58423" lon="7.18428">
        <ele>666.8</ele>
      </trkpt>
      <trkpt lat="48.58364" lon="7.18426">
        <ele>660.6</ele>
      </trkpt>
      <trkpt lat="48.5829" lon="7.18441">
        <ele>654.2</ele>
      </trkpt>
      <trkpt lat="48.58217" lon="7.18402">
        <ele>646.9</ele>
      </trkpt>
      <trkpt lat="48.58182" lon="7.1835">
        <ele>642.1</ele>
      </trkpt>
      <trkpt lat="48.58136" lon="7.18188">
        <ele>618.9</ele>
      </trkpt>
      <trkpt lat="48.58104" lon="7.18139">
        <ele>608.5</ele>
      </trkpt>
      <trkpt lat="48.58035" lon="7.18112">
        <ele>598</ele>
      </trkpt>
      <trkpt lat="48.57968" lon="7.18123">
        <ele>752</ele>
        <time>2020-12-20T16:06:45Z</time>
      </trkpt>
      <trkpt lat="48.57932" lon="7.18175">
        <ele>598.2</ele>
      </trkpt>
      <trkpt lat="48.57914" lon="7.1825">
        <ele>600.5</ele>
      </trkpt>
      <trkpt lat="48.57915" lon="7.18557">
        <ele>615.9</ele>
      </trkpt>
      <trkpt lat="48.57895" lon="7.18616">
        <ele>627.5</ele>
      </trkpt>
      <trkpt lat="48.57812" lon="7.18594">
        <ele>624.2</ele>
      </trkpt>
      <trkpt lat="48.57765" lon="7.18563">
        <ele>618.4</ele>
      </trkpt>
      <trkpt lat="48.57739" lon="7.18585">
        <ele>617.9</ele>
      </trkpt>
      <trkpt lat="48.57683" lon="7.18771">
        <ele>623.6</ele>
      </trkpt>
      <trkpt lat="48.57679" lon="7.18932">
        <ele>630.9</ele>
      </trkpt>
      <trkpt lat="48.57699" lon="7.19049">
        <ele>629.9</ele>
      </trkpt>
      <trkpt lat="48.57782" lon="7.19198">
        <ele>649.8</ele>
      </trkpt>
      <trkpt lat="48.57698" lon="7.19476">
        <ele>658.9</ele>
      </trkpt>
      <trkpt lat="48.57628" lon="7.19631">
        <ele>656.7</ele>
      </trkpt>
      <trkpt lat="48.5762" lon="7.19786">
        <ele>664.1</ele>
      </trkpt>
      <trkpt lat="48.57645" lon="7.19914">
        <ele>669.4</ele>
      </trkpt>
      <trkpt lat="48.57685" lon="7.19973">
        <ele>677.7</ele>
      </trkpt>
      <trkpt lat="48.57718" lon="7.20024">
        <ele>682.7</ele>
      </trkpt>
      <trkpt lat="48.5774" lon="7.2016">
        <ele>756</ele>
        <time>2020-12-20T16:07:21Z</time>
      </trkpt>
      <trkpt lat="48.5774" lon="7.20254">
        <ele>763</ele>
        <time>2020-12-20T16:08:24Z</time>
      </trkpt>
      <trkpt lat="48.57697" lon="7.2034">
        <ele>768</ele>
        <time>2020-12-20T16:09:07Z</time>
      </trkpt>
      <trkpt lat="48.57675" lon="7.20425">
        <ele>774</ele>
        <time>2020-12-20T16:10:27Z</time>
      </trkpt>
      <trkpt lat="48.57679" lon="7.20538">
        <ele>775</ele>
        <time>2020-12-20T16:10:52Z</time>
      </trkpt>
      <trkpt lat="48.57672" lon="7.20702">
        <ele>774</ele>
        <time>2020-12-20T16:11:12Z</time>
      </trkpt>
      <trkpt lat="48.5765" lon="7.20838">
        <ele>792</ele>
        <time>2020-12-20T16:16:28Z</time>
      </trkpt>
      <trkpt lat="48.57611" lon="7.20974">
        <ele>794</ele>
        <time>2020-12-20T16:16:47Z</time>
      </trkpt>
      <trkpt lat="48.57559" lon="7.21119">
        <ele>796</ele>
        <time>2020-12-20T16:17:12Z</time>
      </trkpt>
      <trkpt lat="48.57487" lon="7.21237">
        <ele>798</ele>
        <time>2020-12-20T16:17:42Z</time>
      </trkpt>
      <trkpt lat="48.57446" lon="7.21352">
        <ele>802</ele>
        <time>2020-12-20T16:18:46Z</time>
      </trkpt>
      <trkpt lat="48.57389" lon="7.21482">
        <ele>803</ele>
        <time>2020-12-20T16:18:57Z</time>
      </trkpt>
      <trkpt lat="48.57326" lon="7.21541">
        <ele>805</ele>
        <time>2020-12-20T16:19:30Z</time>
      </trkpt>
      <trkpt lat="48.57223" lon="7.21568">
        <ele>805</ele>
        <time>2020-12-20T16:19:37Z</time>
      </trkpt>
      <trkpt lat="48.57138" lon="7.216">
        <ele>808</ele>
        <time>2020-12-20T16:20:19Z</time>
      </trkpt>
      <trkpt lat="48.56999" lon="7.21689">
        <ele>811</ele>
        <time>2020-12-20T16:20:57Z</time>
      </trkpt>
      <trkpt lat="48.5694" lon="7.21704">
        <ele>812</ele>
        <time>2020-12-20T16:21:07Z</time>
      </trkpt>
      <trkpt lat="48.56932" lon="7.21703">
        <ele>812</ele>
        <time>2020-12-20T16:21:12Z</time>
      </trkpt>
      <trkpt lat="48.5692" lon="7.21695">
        <ele>813</ele>
        <time>2020-12-20T16:21:18Z</time>
      </trkpt>
      <trkpt lat="48.56911" lon="7.21671">
        <ele>814</ele>
        <time>2020-12-20T16:21:29Z</time>
      </trkpt>
      <trkpt lat="48.56904" lon="7.21548">
        <ele>818</ele>
        <time>2020-12-20T16:22:18Z</time>
      </trkpt>
      <trkpt lat="48.56871" lon="7.21454">
        <ele>822</ele>
        <time>2020-12-20T16:23:01Z</time>
      </trkpt>
      <trkpt lat="48.5683" lon="7.21396">
        <ele>826</ele>
        <time>2020-12-20T16:23:36Z</time>
      </trkpt>
      <trkpt lat="48.56747" lon="7.21319">
        <ele>832</ele>
        <time>2020-12-20T16:24:40Z</time>
      </trkpt>
      <trkpt lat="48.56717" lon="7.21268">
        <ele>836</ele>
        <time>2020-12-20T16:25:11Z</time>
      </trkpt>
      <trkpt lat="48.56679" lon="7.21167">
        <ele>841</ele>
        <time>2020-12-20T16:26:05Z</time>
      </trkpt>
      <trkpt lat="48.56636" lon="7.21087">
        <ele>845</ele>
        <time>2020-12-20T16:26:50Z</time>
      </trkpt>
      <trkpt lat="48.56578" lon="7.21014">
        <ele>850</ele>
        <time>2020-12-20T16:27:37Z</time>
      </trkpt>
      <trkpt lat="48.56515" lon="7.20962">
        <ele>853</ele>
        <time>2020-12-20T16:28:16Z</time>
      </trkpt>
      <trkpt lat="48.56502" lon="7.20961">
        <ele>853</ele>
        <time>2020-12-20T16:28:23Z</time>
      </trkpt>
      <trkpt lat="48.56482" lon="7.20941">
        <ele>854</ele>
        <time>2020-12-20T16:28:34Z</time>
      </trkpt>
      <trkpt lat="48.56424" lon="7.20923">
        <ele>855</ele>
        <time>2020-12-20T16:28:59Z</time>
      </trkpt>
      <trkpt lat="48.56338" lon="7.20924">
        <ele>856</ele>
        <time>2020-12-20T16:29:29Z</time>
      </trkpt>
      <trkpt lat="48.56244" lon="7.20941">
        <ele>856</ele>
        <time>2020-12-20T16:29:57Z</time>
      </trkpt>
      <trkpt lat="48.561" lon="7.20948">
        <ele>854</ele>
        <time>2020-12-20T16:30:37Z</time>
      </trkpt>
      <trkpt lat="48.5604" lon="7.20971">
        <ele>853</ele>
        <time>2020-12-20T16:30:55Z</time>
      </trkpt>
      <trkpt lat="48.55956" lon="7.2103">
        <ele>854</ele>
        <time>2020-12-20T16:31:23Z</time>
      </trkpt>
      <trkpt lat="48.55924" lon="7.21082">
        <ele>854</ele>
        <time>2020-12-20T16:31:45Z</time>
      </trkpt>
      <trkpt lat="48.55881" lon="7.21194">
        <ele>856</ele>
        <time>2020-12-20T16:32:24Z</time>
      </trkpt>
      <trkpt lat="48.55833" lon="7.21272">
        <ele>858</ele>
        <time>2020-12-20T16:33:01Z</time>
      </trkpt>
      <trkpt lat="48.55824" lon="7.21278">
        <ele>859</ele>
        <time>2020-12-20T16:33:06Z</time>
      </trkpt>
      <trkpt lat="48.55812" lon="7.21273">
        <ele>859</ele>
        <time>2020-12-20T16:33:12Z</time>
      </trkpt>
      <trkpt lat="48.55791" lon="7.21169">
        <ele>860</ele>
        <time>2020-12-20T16:33:43Z</time>
      </trkpt>
      <trkpt lat="48.55762" lon="7.21091">
        <ele>860</ele>
        <time>2020-12-20T16:34:01Z</time>
      </trkpt>
      <trkpt lat="48.55745" lon="7.21072">
        <ele>860</ele>
        <time>2020-12-20T16:34:08Z</time>
      </trkpt>
      <trkpt lat="48.557" lon="7.21064">
        <ele>860</ele>
        <time>2020-12-20T16:34:21Z</time>
      </trkpt>
      <trkpt lat="48.5569" lon="7.2105">
        <ele>860</ele>
        <time>2020-12-20T16:34:26Z</time>
      </trkpt>
      <trkpt lat="48.55691" lon="7.21034">
        <ele>860</ele>
        <time>2020-12-20T16:34:29Z</time>
      </trkpt>
      <trkpt lat="48.55698" lon="7.21024">
        <ele>860</ele>
        <time>2020-12-20T16:34:31Z</time>
      </trkpt>
      <trkpt lat="48.55777" lon="7.20917">
        <ele>860</ele>
        <time>2020-12-20T16:35:02Z</time>
      </trkpt>
      <trkpt lat="48.55787" lon="7.2088">
        <ele>860</ele>
        <time>2020-12-20T16:35:13Z</time>
      </trkpt>
      <trkpt lat="48.55792" lon="7.20835">
        <ele>861</ele>
        <time>2020-12-20T16:35:25Z</time>
      </trkpt>
      <trkpt lat="48.55788" lon="7.20777">
        <ele>862</ele>
        <time>2020-12-20T16:35:42Z</time>
      </trkpt>
      <trkpt lat="48.55773" lon="7.20711">
        <ele>864</ele>
        <time>2020-12-20T16:36:03Z</time>
      </trkpt>
      <trkpt lat="48.55769" lon="7.20701">
        <ele>864</ele>
        <time>2020-12-20T16:36:07Z</time>
      </trkpt>
      <trkpt lat="48.55701" lon="7.20605">
        <ele>876</ele>
        <time>2020-12-20T16:38:20Z</time>
      </trkpt>
      <trkpt lat="48.55584" lon="7.2054">
        <ele>879</ele>
        <time>2020-12-20T16:39:01Z</time>
      </trkpt>
      <trkpt lat="48.55558" lon="7.20504">
        <ele>884</ele>
        <time>2020-12-20T16:39:54Z</time>
      </trkpt>
      <trkpt lat="48.55506" lon="7.20484">
        <ele>885</ele>
        <time>2020-12-20T16:40:13Z</time>
      </trkpt>
      <trkpt lat="48.55494" lon="7.20455">
        <ele>889</ele>
        <time>2020-12-20T16:41:06Z</time>
      </trkpt>
      <trkpt lat="48.55569" lon="7.2035">
        <ele>889</ele>
        <time>2020-12-20T16:41:16Z</time>
      </trkpt>
      <trkpt lat="48.55653" lon="7.20333">
        <ele>890</ele>
        <time>2020-12-20T16:41:51Z</time>
      </trkpt>
      <trkpt lat="48.55791" lon="7.20194">
        <ele>890</ele>
        <time>2020-12-20T16:41:57Z</time>
      </trkpt>
      <trkpt lat="48.55813" lon="7.20062">
        <ele>886</ele>
        <time>2020-12-20T16:42:41Z</time>
      </trkpt>
      <trkpt lat="48.55797" lon="7.19952">
        <ele>880</ele>
        <time>2020-12-20T16:43:33Z</time>
      </trkpt>
      <trkpt lat="48.55672" lon="7.19772">
        <ele>875</ele>
        <time>2020-12-20T16:44:12Z</time>
      </trkpt>
      <trkpt lat="48.55871" lon="7.19624">
        <ele>860</ele>
        <time>2020-12-20T16:44:51Z</time>
      </trkpt>
      <trkpt lat="48.56029" lon="7.19513">
        <ele>858</ele>
        <time>2020-12-20T16:45:00Z</time>
      </trkpt>
      <trkpt lat="48.5607" lon="7.19223">
        <ele>848</ele>
        <time>2020-12-20T16:45:50Z</time>
      </trkpt>
      <trkpt lat="48.5601" lon="7.18965">
        <ele>845</ele>
        <time>2020-12-20T16:46:23Z</time>
      </trkpt>
      <trkpt lat="48.55959" lon="7.18864">
        <ele>778</ele>
      </trkpt>
      <trkpt lat="48.55902" lon="7.18831">
        <ele>780.4</ele>
      </trkpt>
      <trkpt lat="48.55858" lon="7.18846">
        <ele>781.3</ele>
      </trkpt>
      <trkpt lat="48.55662" lon="7.19032">
        <ele>789.2</ele>
      </trkpt>
      <trkpt lat="48.55604" lon="7.19102">
        <ele>796</ele>
      </trkpt>
      <trkpt lat="48.55519" lon="7.19137">
        <ele>834</ele>
        <time>2020-12-20T16:47:01Z</time>
      </trkpt>
      <trkpt lat="48.55488" lon="7.19127">
        <ele>807</ele>
      </trkpt>
      <trkpt lat="48.55496" lon="7.1907">
        <ele>803.7</ele>
      </trkpt>
      <trkpt lat="48.55515" lon="7.19022">
        <ele>797.8</ele>
      </trkpt>
      <trkpt lat="48.55518" lon="7.18817">
        <ele>795.8</ele>
      </trkpt>
      <trkpt lat="48.55459" lon="7.18661">
        <ele>821</ele>
        <time>2020-12-20T16:47:37Z</time>
      </trkpt>
      <trkpt lat="48.55436" lon="7.18536">
        <ele>816</ele>
        <time>2020-12-20T16:47:53Z</time>
      </trkpt>
      <trkpt lat="48.55399" lon="7.18475">
        <ele>810</ele>
        <time>2020-12-20T16:48:07Z</time>
      </trkpt>
      <trkpt lat="48.55362" lon="7.18459">
        <ele>806</ele>
        <time>2020-12-20T16:48:19Z</time>
      </trkpt>
      <trkpt lat="48.55355" lon="7.18459">
        <ele>806</ele>
        <time>2020-12-20T16:48:20Z</time>
      </trkpt>
      <trkpt lat="48.55332" lon="7.18469">
        <ele>804</ele>
        <time>2020-12-20T16:48:26Z</time>
      </trkpt>
      <trkpt lat="48.5522" lon="7.18551">
        <ele>796</ele>
        <time>2020-12-20T16:48:55Z</time>
      </trkpt>
      <trkpt lat="48.55065" lon="7.18592">
        <ele>788</ele>
        <time>2020-12-20T16:49:33Z</time>
      </trkpt>
      <trkpt lat="48.55011" lon="7.18615">
        <ele>785</ele>
        <time>2020-12-20T16:49:46Z</time>
      </trkpt>
      <trkpt lat="48.54868" lon="7.18749">
        <ele>778</ele>
        <time>2020-12-20T16:50:28Z</time>
      </trkpt>
      <trkpt lat="48.54705" lon="7.18848">
        <ele>768</ele>
        <time>2020-12-20T16:51:10Z</time>
      </trkpt>
      <trkpt lat="48.54591" lon="7.18953">
        <ele>763</ele>
        <time>2020-12-20T16:51:41Z</time>
      </trkpt>
      <trkpt lat="48.54514" lon="7.18992">
        <ele>761</ele>
        <time>2020-12-20T16:52:05Z</time>
      </trkpt>
      <trkpt lat="48.54506" lon="7.18996">
        <ele>762</ele>
        <time>2020-12-20T16:52:08Z</time>
      </trkpt>
      <trkpt lat="48.54494" lon="7.18997">
        <ele>762</ele>
        <time>2020-12-20T16:52:20Z</time>
      </trkpt>
      <trkpt lat="48.54442" lon="7.19019">
        <ele>766</ele>
        <time>2020-12-20T16:52:50Z</time>
      </trkpt>
      <trkpt lat="48.54393" lon="7.1901">
        <ele>770</ele>
        <time>2020-12-20T16:53:32Z</time>
      </trkpt>
      <trkpt lat="48.54368" lon="7.19003">
        <ele>772</ele>
        <time>2020-12-20T16:53:48Z</time>
      </trkpt>
      <trkpt lat="48.54334" lon="7.1898">
        <ele>774</ele>
        <time>2020-12-20T16:54:21Z</time>
      </trkpt>
      <trkpt lat="48.54285" lon="7.18911">
        <ele>777</ele>
        <time>2020-12-20T16:55:12Z</time>
      </trkpt>
      <trkpt lat="48.54244" lon="7.18813">
        <ele>781</ele>
        <time>2020-12-20T16:55:50Z</time>
      </trkpt>
      <trkpt lat="48.54222" lon="7.18788">
        <ele>782</ele>
        <time>2020-12-20T16:55:59Z</time>
      </trkpt>
      <trkpt lat="48.54193" lon="7.18789">
        <ele>782</ele>
        <time>2020-12-20T16:56:07Z</time>
      </trkpt>
      <trkpt lat="48.54047" lon="7.18873">
        <ele>777</ele>
        <time>2020-12-20T16:56:46Z</time>
      </trkpt>
      <trkpt lat="48.53986" lon="7.1888">
        <ele>777</ele>
        <time>2020-12-20T16:57:02Z</time>
      </trkpt>
      <trkpt lat="48.53891" lon="7.18786">
        <ele>777</ele>
        <time>2020-12-20T16:57:05Z</time>
      </trkpt>
      <trkpt lat="48.53854" lon="7.18718">
        <ele>777</ele>
        <time>2020-12-20T16:57:13Z</time>
      </trkpt>
      <trkpt lat="48.53837" lon="7.18646">
        <ele>778</ele>
        <time>2020-12-20T16:58:11Z</time>
      </trkpt>
      <trkpt lat="48.53805" lon="7.18533">
        <ele>781</ele>
        <time>2020-12-20T16:59:05Z</time>
      </trkpt>
      <trkpt lat="48.5373" lon="7.18411">
        <ele>783</ele>
        <time>2020-12-20T16:59:43Z</time>
      </trkpt>
      <trkpt lat="48.53634" lon="7.18069">
        <ele>785</ele>
        <time>2020-12-20T17:00:22Z</time>
      </trkpt>
      <trkpt lat="48.53651" lon="7.18009">
        <ele>795</ele>
        <time>2020-12-20T17:02:03Z</time>
      </trkpt>
      <trkpt lat="48.53696" lon="7.17901">
        <ele>805</ele>
        <time>2020-12-20T17:03:37Z</time>
      </trkpt>
      <trkpt lat="48.53729" lon="7.17735">
        <ele>811</ele>
        <time>2020-12-20T17:04:49Z</time>
      </trkpt>
      <trkpt lat="48.53704" lon="7.1763">
        <ele>815</ele>
        <time>2020-12-20T17:05:46Z</time>
      </trkpt>
      <trkpt lat="48.53657" lon="7.17562">
        <ele>813</ele>
        <time>2020-12-20T17:06:26Z</time>
      </trkpt>
      <trkpt lat="48.53558" lon="7.17492">
        <ele>803</ele>
        <time>2020-12-20T17:07:23Z</time>
      </trkpt>
      <trkpt lat="48.53354" lon="7.17274">
        <ele>801</ele>
        <time>2020-12-20T17:07:33Z</time>
      </trkpt>
      <trkpt lat="48.53279" lon="7.17203">
        <ele>801</ele>
        <time>2020-12-20T17:07:35Z</time>
      </trkpt>
      <trkpt lat="48.53245" lon="7.17173">
        <ele>800</ele>
        <time>2020-12-20T17:07:38Z</time>
      </trkpt>
      <trkpt lat="48.53236" lon="7.17169">
        <ele>800</ele>
        <time>2020-12-20T17:07:41Z</time>
      </trkpt>
      <trkpt lat="48.5321" lon="7.17153">
        <ele>799</ele>
        <time>2020-12-20T17:07:48Z</time>
      </trkpt>
      <trkpt lat="48.53111" lon="7.17033">
        <ele>794</ele>
        <time>2020-12-20T17:08:18Z</time>
      </trkpt>
      <trkpt lat="48.53004" lon="7.16933">
        <ele>789</ele>
        <time>2020-12-20T17:08:50Z</time>
      </trkpt>
      <trkpt lat="48.52954" lon="7.16896">
        <ele>787</ele>
        <time>2020-12-20T17:09:04Z</time>
      </trkpt>
      <trkpt lat="48.52856" lon="7.16862">
        <ele>785</ele>
        <time>2020-12-20T17:09:39Z</time>
      </trkpt>
      <trkpt lat="48.52813" lon="7.1683">
        <ele>784</ele>
        <time>2020-12-20T17:09:46Z</time>
      </trkpt>
      <trkpt lat="48.52761" lon="7.16774">
        <ele>785</ele>
        <time>2020-12-20T17:09:59Z</time>
      </trkpt>
      <trkpt lat="48.52757" lon="7.16784">
        <ele>785</ele>
        <time>2020-12-20T17:10:03Z</time>
      </trkpt>
      <trkpt lat="48.52767" lon="7.16805">
        <ele>785</ele>
        <time>2020-12-20T17:10:09Z</time>
      </trkpt>
      <trkpt lat="48.52768" lon="7.1682">
        <ele>785</ele>
        <time>2020-12-20T17:10:12Z</time>
      </trkpt>
      <trkpt lat="48.52767" lon="7.16831">
        <ele>786</ele>
        <time>2020-12-20T17:10:17Z</time>
      </trkpt>
      <trkpt lat="48.52757" lon="7.16852">
        <ele>786</ele>
        <time>2020-12-20T17:10:25Z</time>
      </trkpt>
      <trkpt lat="48.52782" lon="7.1687">
        <ele>786</ele>
        <time>2020-12-20T17:10:36Z</time>
      </trkpt>
      <trkpt lat="48.52757" lon="7.16852">
        <ele>787</ele>
        <time>2020-12-20T17:10:51Z</time>
      </trkpt>
      <trkpt lat="48.52694" lon="7.16852">
        <ele>790</ele>
        <time>2020-12-20T17:11:18Z</time>
      </trkpt>
      <trkpt lat="48.5264" lon="7.16883">
        <ele>793</ele>
        <time>2020-12-20T17:11:55Z</time>
      </trkpt>
      <trkpt lat="48.52518" lon="7.17012">
        <ele>802</ele>
        <time>2020-12-20T17:13:41Z</time>
      </trkpt>
      <trkpt lat="48.52493" lon="7.17046">
        <ele>804</ele>
        <time>2020-12-20T17:14:00Z</time>
      </trkpt>
      <trkpt lat="48.52478" lon="7.17085">
        <ele>806</ele>
        <time>2020-12-20T17:14:16Z</time>
      </trkpt>
      <trkpt lat="48.52479" lon="7.17106">
        <ele>807</ele>
        <time>2020-12-20T17:14:23Z</time>
      </trkpt>
      <trkpt lat="48.52503" lon="7.17182">
        <ele>807</ele>
        <time>2020-12-20T17:14:49Z</time>
      </trkpt>
      <trkpt lat="48.52517" lon="7.17265">
        <ele>808</ele>
        <time>2020-12-20T17:15:09Z</time>
      </trkpt>
      <trkpt lat="48.52505" lon="7.17433">
        <ele>808</ele>
        <time>2020-12-20T17:15:43Z</time>
      </trkpt>
      <trkpt lat="48.52494" lon="7.17481">
        <ele>808</ele>
        <time>2020-12-20T17:15:53Z</time>
      </trkpt>
      <trkpt lat="48.52444" lon="7.17593">
        <ele>808</ele>
        <time>2020-12-20T17:16:20Z</time>
      </trkpt>
      <trkpt lat="48.52407" lon="7.17629">
        <ele>809</ele>
        <time>2020-12-20T17:16:36Z</time>
      </trkpt>
      <trkpt lat="48.52387" lon="7.17631">
        <ele>810</ele>
        <time>2020-12-20T17:16:44Z</time>
      </trkpt>
      <trkpt lat="48.52358" lon="7.17623">
        <ele>811</ele>
        <time>2020-12-20T17:16:57Z</time>
      </trkpt>
      <trkpt lat="48.52195" lon="7.17499">
        <ele>824</ele>
        <time>2020-12-20T17:18:59Z</time>
      </trkpt>
      <trkpt lat="48.52162" lon="7.17484">
        <ele>828</ele>
        <time>2020-12-20T17:19:33Z</time>
      </trkpt>
      <trkpt lat="48.52113" lon="7.17473">
        <ele>833</ele>
        <time>2020-12-20T17:20:23Z</time>
      </trkpt>
      <trkpt lat="48.52049" lon="7.17479">
        <ele>839</ele>
        <time>2020-12-20T17:21:22Z</time>
      </trkpt>
      <trkpt lat="48.52006" lon="7.17509">
        <ele>843</ele>
        <time>2020-12-20T17:22:04Z</time>
      </trkpt>
      <trkpt lat="48.5198" lon="7.17536">
        <ele>846</ele>
        <time>2020-12-20T17:22:28Z</time>
      </trkpt>
      <trkpt lat="48.51909" lon="7.17665">
        <ele>851</ele>
        <time>2020-12-20T17:23:31Z</time>
      </trkpt>
      <trkpt lat="48.51827" lon="7.17742">
        <ele>851</ele>
        <time>2020-12-20T17:23:57Z</time>
      </trkpt>
      <trkpt lat="48.5173" lon="7.17763">
        <ele>847</ele>
        <time>2020-12-20T17:24:21Z</time>
      </trkpt>
      <trkpt lat="48.51719" lon="7.17763">
        <ele>846</ele>
        <time>2020-12-20T17:24:24Z</time>
      </trkpt>
      <trkpt lat="48.5168" lon="7.17775">
        <ele>844</ele>
        <time>2020-12-20T17:24:34Z</time>
      </trkpt>
      <trkpt lat="48.51594" lon="7.17829">
        <ele>838</ele>
        <time>2020-12-20T17:24:55Z</time>
      </trkpt>
      <trkpt lat="48.51527" lon="7.17839">
        <ele>834</ele>
        <time>2020-12-20T17:25:10Z</time>
      </trkpt>
      <trkpt lat="48.51495" lon="7.1783">
        <ele>832</ele>
        <time>2020-12-20T17:25:17Z</time>
      </trkpt>
      <trkpt lat="48.51438" lon="7.17793">
        <ele>828</ele>
        <time>2020-12-20T17:25:32Z</time>
      </trkpt>
      <trkpt lat="48.51396" lon="7.17702">
        <ele>826</ele>
        <time>2020-12-20T17:25:49Z</time>
      </trkpt>
      <trkpt lat="48.5138" lon="7.17609">
        <ele>824</ele>
        <time>2020-12-20T17:26:07Z</time>
      </trkpt>
      <trkpt lat="48.51381" lon="7.17531">
        <ele>824</ele>
        <time>2020-12-20T17:26:26Z</time>
      </trkpt>
      <trkpt lat="48.51394" lon="7.17436">
        <ele>826</ele>
        <time>2020-12-20T17:26:56Z</time>
      </trkpt>
      <trkpt lat="48.51407" lon="7.17416">
        <ele>827</ele>
        <time>2020-12-20T17:27:08Z</time>
      </trkpt>
      <trkpt lat="48.51507" lon="7.17305">
        <ele>829</ele>
        <time>2020-12-20T17:28:08Z</time>
      </trkpt>
      <trkpt lat="48.51559" lon="7.17232">
        <ele>829</ele>
        <time>2020-12-20T17:28:35Z</time>
      </trkpt>
      <trkpt lat="48.51563" lon="7.17221">
        <ele>830</ele>
        <time>2020-12-20T17:28:37Z</time>
      </trkpt>
      <trkpt lat="48.51573" lon="7.17186">
        <ele>830</ele>
        <time>2020-12-20T17:28:44Z</time>
      </trkpt>
      <trkpt lat="48.51573" lon="7.17148">
        <ele>830</ele>
        <time>2020-12-20T17:28:51Z</time>
      </trkpt>
      <trkpt lat="48.51593" lon="7.1703">
        <ele>829</ele>
        <time>2020-12-20T17:29:13Z</time>
      </trkpt>
      <trkpt lat="48.51586" lon="7.17022">
        <ele>828</ele>
        <time>2020-12-20T17:29:16Z</time>
      </trkpt>
      <trkpt lat="48.51575" lon="7.16994">
        <ele>828</ele>
        <time>2020-12-20T17:29:22Z</time>
      </trkpt>
      <trkpt lat="48.5157" lon="7.16959">
        <ele>828</ele>
        <time>2020-12-20T17:29:29Z</time>
      </trkpt>
      <trkpt lat="48.5156" lon="7.1695">
        <ele>828</ele>
        <time>2020-12-20T17:29:33Z</time>
      </trkpt>
      <trkpt lat="48.51532" lon="7.16942">
        <ele>827</ele>
        <time>2020-12-20T17:29:42Z</time>
      </trkpt>
      <trkpt lat="48.51485" lon="7.16902">
        <ele>827</ele>
        <time>2020-12-20T17:30:01Z</time>
      </trkpt>
      <trkpt lat="48.51476" lon="7.169">
        <ele>827</ele>
        <time>2020-12-20T17:30:04Z</time>
      </trkpt>
      <trkpt lat="48.51401" lon="7.16917">
        <ele>827</ele>
        <time>2020-12-20T17:30:32Z</time>
      </trkpt>
      <trkpt lat="48.51245" lon="7.17034">
        <ele>823</ele>
        <time>2020-12-20T17:31:18Z</time>
      </trkpt>
      <trkpt lat="48.51183" lon="7.17035">
        <ele>821</ele>
        <time>2020-12-20T17:31:33Z</time>
      </trkpt>
      <trkpt lat="48.5111" lon="7.1702">
        <ele>818</ele>
        <time>2020-12-20T17:31:51Z</time>
      </trkpt>
      <trkpt lat="48.5104" lon="7.16936">
        <ele>815</ele>
        <time>2020-12-20T17:32:14Z</time>
      </trkpt>
      <trkpt lat="48.50904" lon="7.16726">
        <ele>812</ele>
        <time>2020-12-20T17:33:09Z</time>
      </trkpt>
      <trkpt lat="48.50871" lon="7.16594">
        <ele>813</ele>
        <time>2020-12-20T17:33:45Z</time>
      </trkpt>
      <trkpt lat="48.50855" lon="7.16584">
        <ele>813</ele>
        <time>2020-12-20T17:33:52Z</time>
      </trkpt>
      <trkpt lat="48.50787" lon="7.16563">
        <ele>814</ele>
        <time>2020-12-20T17:34:21Z</time>
      </trkpt>
      <trkpt lat="48.50757" lon="7.16527">
        <ele>814</ele>
        <time>2020-12-20T17:34:37Z</time>
      </trkpt>
      <trkpt lat="48.50715" lon="7.16437">
        <ele>816</ele>
        <time>2020-12-20T17:35:01Z</time>
      </trkpt>
      <trkpt lat="48.50677" lon="7.16314">
        <ele>818</ele>
        <time>2020-12-20T17:35:40Z</time>
      </trkpt>
      <trkpt lat="48.50665" lon="7.16236">
        <ele>820</ele>
        <time>2020-12-20T17:36:03Z</time>
      </trkpt>
      <trkpt lat="48.50684" lon="7.16305">
        <ele>822</ele>
        <time>2020-12-20T17:36:29Z</time>
      </trkpt>
      <trkpt lat="48.50699" lon="7.16326">
        <ele>823</ele>
        <time>2020-12-20T17:36:36Z</time>
      </trkpt>
      <trkpt lat="48.50817" lon="7.16396">
        <ele>833</ele>
        <time>2020-12-20T17:37:56Z</time>
      </trkpt>
      <trkpt lat="48.50866" lon="7.16452">
        <ele>838</ele>
        <time>2020-12-20T17:38:36Z</time>
      </trkpt>
      <trkpt lat="48.50915" lon="7.16498">
        <ele>844</ele>
        <time>2020-12-20T17:39:13Z</time>
      </trkpt>
      <trkpt lat="48.50931" lon="7.16505">
        <ele>845</ele>
        <time>2020-12-20T17:39:24Z</time>
      </trkpt>
      <trkpt lat="48.50973" lon="7.1651">
        <ele>849</ele>
        <time>2020-12-20T17:39:54Z</time>
      </trkpt>
      <trkpt lat="48.51008" lon="7.16594">
        <ele>856</ele>
        <time>2020-12-20T17:40:40Z</time>
      </trkpt>
      <trkpt lat="48.51075" lon="7.16664">
        <ele>863</ele>
        <time>2020-12-20T17:41:36Z</time>
      </trkpt>
      <trkpt lat="48.51185" lon="7.16766">
        <ele>875</ele>
        <time>2020-12-20T17:43:02Z</time>
      </trkpt>
      <trkpt lat="48.51236" lon="7.16803">
        <ele>879</ele>
        <time>2020-12-20T17:43:35Z</time>
      </trkpt>
      <trkpt lat="48.51243" lon="7.16804">
        <ele>880</ele>
        <time>2020-12-20T17:43:39Z</time>
      </trkpt>
      <trkpt lat="48.51248" lon="7.16794">
        <ele>880</ele>
        <time>2020-12-20T17:43:43Z</time>
      </trkpt>
      <trkpt lat="48.51243" lon="7.16782">
        <ele>881</ele>
        <time>2020-12-20T17:43:50Z</time>
      </trkpt>
      <trkpt lat="48.51217" lon="7.16771">
        <ele>883</ele>
        <time>2020-12-20T17:44:03Z</time>
      </trkpt>
      <trkpt lat="48.51169" lon="7.16714">
        <ele>887</ele>
        <time>2020-12-20T17:44:35Z</time>
      </trkpt>
      <trkpt lat="48.51131" lon="7.16622">
        <ele>893</ele>
        <time>2020-12-20T17:45:16Z</time>
      </trkpt>
      <trkpt lat="48.51102" lon="7.16476">
        <ele>901</ele>
        <time>2020-12-20T17:46:18Z</time>
      </trkpt>
      <trkpt lat="48.5108" lon="7.16385">
        <ele>907</ele>
        <time>2020-12-20T17:46:58Z</time>
      </trkpt>
      <trkpt lat="48.51069" lon="7.16352">
        <ele>909</ele>
        <time>2020-12-20T17:47:14Z</time>
      </trkpt>
      <trkpt lat="48.5098" lon="7.16226">
        <ele>921</ele>
        <time>2020-12-20T17:48:40Z</time>
      </trkpt>
      <trkpt lat="48.50963" lon="7.16169">
        <ele>925</ele>
        <time>2020-12-20T17:49:09Z</time>
      </trkpt>
      <trkpt lat="48.50955" lon="7.16109">
        <ele>929</ele>
        <time>2020-12-20T17:49:38Z</time>
      </trkpt>
      <trkpt lat="48.50966" lon="7.16082">
        <ele>931</ele>
        <time>2020-12-20T17:49:57Z</time>
      </trkpt>
      <trkpt lat="48.50982" lon="7.16071">
        <ele>933</ele>
        <time>2020-12-20T17:50:10Z</time>
      </trkpt>
      <trkpt lat="48.50998" lon="7.16071">
        <ele>935</ele>
        <time>2020-12-20T17:50:23Z</time>
      </trkpt>
      <trkpt lat="48.51038" lon="7.16097">
        <ele>939</ele>
        <time>2020-12-20T17:50:52Z</time>
      </trkpt>
      <trkpt lat="48.51082" lon="7.16151">
        <ele>945</ele>
        <time>2020-12-20T17:51:27Z</time>
      </trkpt>
      <trkpt lat="48.51085" lon="7.16162">
        <ele>945</ele>
        <time>2020-12-20T17:51:35Z</time>
      </trkpt>
      <trkpt lat="48.51102" lon="7.16177">
        <ele>947</ele>
        <time>2020-12-20T17:51:51Z</time>
      </trkpt>
      <trkpt lat="48.51096" lon="7.16203">
        <ele>949</ele>
        <time>2020-12-20T17:52:06Z</time>
      </trkpt>
      <trkpt lat="48.51091" lon="7.16212">
        <ele>950</ele>
        <time>2020-12-20T17:52:13Z</time>
      </trkpt>
      <trkpt lat="48.51089" lon="7.16229">
        <ele>951</ele>
        <time>2020-12-20T17:52:20Z</time>
      </trkpt>
      <trkpt lat="48.51094" lon="7.16243">
        <ele>952</ele>
        <time>2020-12-20T17:52:28Z</time>
      </trkpt>
      <trkpt lat="48.51135" lon="7.16283">
        <ele>952</ele>
        <time>2020-12-20T17:53:05Z</time>
      </trkpt>
      <trkpt lat="48.51183" lon="7.16328">
        <ele>952</ele>
        <time>2020-12-20T17:53:36Z</time>
      </trkpt>
      <trkpt lat="48.51218" lon="7.1638">
        <ele>952</ele>
        <time>2020-12-20T17:54:12Z</time>
      </trkpt>
      <trkpt lat="48.51241" lon="7.16391">
        <ele>952</ele>
        <time>2020-12-20T17:54:22Z</time>
      </trkpt>
      <trkpt lat="48.51259" lon="7.1642">
        <ele>952</ele>
        <time>2020-12-20T17:54:43Z</time>
      </trkpt>
      <trkpt lat="48.51265" lon="7.16435">
        <ele>952</ele>
        <time>2020-12-20T17:54:49Z</time>
      </trkpt>
      <trkpt lat="48.51271" lon="7.16483">
        <ele>952</ele>
        <time>2020-12-20T17:55:04Z</time>
      </trkpt>
      <trkpt lat="48.51263" lon="7.16472">
        <ele>952</ele>
        <time>2020-12-20T17:55:20Z</time>
      </trkpt>
      <trkpt lat="48.51254" lon="7.16408">
        <ele>960</ele>
        <time>2020-12-20T14:14:59Z</time>
      </trkpt>
      <trkpt lat="48.51247" lon="7.16395">
        <ele>960</ele>
        <time>2020-12-20T14:15:00Z</time>
      </trkpt>
      <trkpt lat="48.51218" lon="7.1638">
        <ele>960</ele>
        <time>2020-12-20T14:15:04Z</time>
      </trkpt>
      <trkpt lat="48.51201" lon="7.16352">
        <ele>960</ele>
        <time>2020-12-20T14:15:08Z</time>
      </trkpt>
      <trkpt lat="48.51183" lon="7.16328">
        <ele>960</ele>
        <time>2020-12-20T14:15:11Z</time>
      </trkpt>
      <trkpt lat="48.51051" lon="7.16206">
        <ele>939</ele>
        <time>2020-12-20T14:15:32Z</time>
      </trkpt>
      <trkpt lat="48.51032" lon="7.16198">
        <ele>937</ele>
        <time>2020-12-20T14:15:35Z</time>
      </trkpt>
      <trkpt lat="48.51028" lon="7.16215">
        <ele>935</ele>
        <time>2020-12-20T14:15:37Z</time>
      </trkpt>
      <trkpt lat="48.51084" lon="7.16331">
        <ele>920</ele>
        <time>2020-12-20T14:15:51Z</time>
      </trkpt>
      <trkpt lat="48.51095" lon="7.16387">
        <ele>914</ele>
        <time>2020-12-20T14:15:57Z</time>
      </trkpt>
      <trkpt lat="48.51102" lon="7.16476">
        <ele>906</ele>
        <time>2020-12-20T14:16:04Z</time>
      </trkpt>
      <trkpt lat="48.51146" lon="7.16668">
        <ele>892</ele>
        <time>2020-12-20T14:16:21Z</time>
      </trkpt>
      <trkpt lat="48.5119" lon="7.16744">
        <ele>889</ele>
        <time>2020-12-20T14:16:32Z</time>
      </trkpt>
      <trkpt lat="48.51217" lon="7.16771">
        <ele>889</ele>
        <time>2020-12-20T14:16:37Z</time>
      </trkpt>
      <trkpt lat="48.51258" lon="7.16785">
        <ele>888</ele>
        <time>2020-12-20T14:16:48Z</time>
      </trkpt>
      <trkpt lat="48.51269" lon="7.16776">
        <ele>887</ele>
        <time>2020-12-20T14:16:52Z</time>
      </trkpt>
      <trkpt lat="48.51325" lon="7.16762">
        <ele>886</ele>
        <time>2020-12-20T14:17:07Z</time>
      </trkpt>
      <trkpt lat="48.51383" lon="7.16762">
        <ele>885</ele>
        <time>2020-12-20T14:17:23Z</time>
      </trkpt>
      <trkpt lat="48.51402" lon="7.16752">
        <ele>884</ele>
        <time>2020-12-20T14:17:29Z</time>
      </trkpt>
      <trkpt lat="48.51428" lon="7.16751">
        <ele>884</ele>
        <time>2020-12-20T14:17:36Z</time>
      </trkpt>
      <trkpt lat="48.51485" lon="7.16768">
        <ele>883</ele>
        <time>2020-12-20T14:17:52Z</time>
      </trkpt>
      <trkpt lat="48.51498" lon="7.16764">
        <ele>882</ele>
        <time>2020-12-20T14:17:55Z</time>
      </trkpt>
      <trkpt lat="48.5153" lon="7.16709">
        <ele>881</ele>
        <time>2020-12-20T14:18:07Z</time>
      </trkpt>
      <trkpt lat="48.51571" lon="7.16558">
        <ele>877</ele>
        <time>2020-12-20T14:18:36Z</time>
      </trkpt>
      <trkpt lat="48.5158" lon="7.1648">
        <ele>875</ele>
        <time>2020-12-20T14:18:50Z</time>
      </trkpt>
      <trkpt lat="48.51548" lon="7.16258">
        <ele>869</ele>
        <time>2020-12-20T14:19:27Z</time>
      </trkpt>
      <trkpt lat="48.51525" lon="7.1619">
        <ele>866</ele>
        <time>2020-12-20T14:19:39Z</time>
      </trkpt>
      <trkpt lat="48.51399" lon="7.15987">
        <ele>859</ele>
        <time>2020-12-20T14:20:25Z</time>
      </trkpt>
      <trkpt lat="48.51234" lon="7.15847">
        <ele>852</ele>
        <time>2020-12-20T14:21:13Z</time>
      </trkpt>
      <trkpt lat="48.51082" lon="7.15778">
        <ele>844</ele>
        <time>2020-12-20T14:21:52Z</time>
      </trkpt>
      <trkpt lat="48.51023" lon="7.15744">
        <ele>839</ele>
        <time>2020-12-20T14:22:07Z</time>
      </trkpt>
      <trkpt lat="48.50945" lon="7.15678">
        <ele>831</ele>
        <time>2020-12-20T14:22:27Z</time>
      </trkpt>
      <trkpt lat="48.50823" lon="7.15472">
        <ele>808</ele>
        <time>2020-12-20T14:23:04Z</time>
      </trkpt>
      <trkpt lat="48.50792" lon="7.1544">
        <ele>802</ele>
        <time>2020-12-20T14:23:12Z</time>
      </trkpt>
      <trkpt lat="48.50757" lon="7.1543">
        <ele>797</ele>
        <time>2020-12-20T14:23:19Z</time>
      </trkpt>
      <trkpt lat="48.50743" lon="7.15442">
        <ele>794</ele>
        <time>2020-12-20T14:23:21Z</time>
      </trkpt>
      <trkpt lat="48.50687" lon="7.1542">
        <ele>785</ele>
        <time>2020-12-20T14:23:28Z</time>
      </trkpt>
      <trkpt lat="48.50678" lon="7.15411">
        <ele>783</ele>
        <time>2020-12-20T14:23:30Z</time>
      </trkpt>
      <trkpt lat="48.50658" lon="7.15381">
        <ele>779</ele>
        <time>2020-12-20T14:23:33Z</time>
      </trkpt>
      <trkpt lat="48.50641" lon="7.15332">
        <ele>774</ele>
        <time>2020-12-20T14:23:37Z</time>
      </trkpt>
      <trkpt lat="48.50639" lon="7.15303">
        <ele>771</ele>
        <time>2020-12-20T14:23:40Z</time>
      </trkpt>
      <trkpt lat="48.50641" lon="7.15186">
        <ele>759</ele>
        <time>2020-12-20T14:23:57Z</time>
      </trkpt>
      <trkpt lat="48.50627" lon="7.15081">
        <ele>751</ele>
        <time>2020-12-20T14:24:11Z</time>
      </trkpt>
      <trkpt lat="48.50627" lon="7.14915">
        <ele>740</ele>
        <time>2020-12-20T14:24:35Z</time>
      </trkpt>
      <trkpt lat="48.50551" lon="7.15023">
        <ele>733</ele>
        <time>2020-12-20T14:24:59Z</time>
      </trkpt>
      <trkpt lat="48.50534" lon="7.15068">
        <ele>731</ele>
        <time>2020-12-20T14:25:07Z</time>
      </trkpt>
      <trkpt lat="48.50505" lon="7.15373">
        <ele>724</ele>
        <time>2020-12-20T14:26:01Z</time>
      </trkpt>
      <trkpt lat="48.50524" lon="7.15602">
        <ele>725</ele>
        <time>2020-12-20T14:26:54Z</time>
      </trkpt>
      <trkpt lat="48.50523" lon="7.15837">
        <ele>726</ele>
        <time>2020-12-20T14:27:59Z</time>
      </trkpt>
      <trkpt lat="48.50519" lon="7.15855">
        <ele>727</ele>
        <time>2020-12-20T14:28:04Z</time>
      </trkpt>
      <trkpt lat="48.50506" lon="7.15875">
        <ele>727</ele>
        <time>2020-12-20T14:28:10Z</time>
      </trkpt>
      <trkpt lat="48.50484" lon="7.15894">
        <ele>727</ele>
        <time>2020-12-20T14:28:18Z</time>
      </trkpt>
      <trkpt lat="48.5046" lon="7.15905">
        <ele>727</ele>
        <time>2020-12-20T14:28:26Z</time>
      </trkpt>
      <trkpt lat="48.50388" lon="7.1591">
        <ele>727</ele>
        <time>2020-12-20T14:28:47Z</time>
      </trkpt>
      <trkpt lat="48.50378" lon="7.15926">
        <ele>727</ele>
        <time>2020-12-20T14:28:51Z</time>
      </trkpt>
      <trkpt lat="48.50376" lon="7.1595">
        <ele>727</ele>
        <time>2020-12-20T14:28:56Z</time>
      </trkpt>
      <trkpt lat="48.5038" lon="7.1601">
        <ele>727</ele>
        <time>2020-12-20T14:29:08Z</time>
      </trkpt>
      <trkpt lat="48.5039" lon="7.16054">
        <ele>726</ele>
        <time>2020-12-20T14:29:17Z</time>
      </trkpt>
      <trkpt lat="48.50397" lon="7.1607">
        <ele>727</ele>
        <time>2020-12-20T14:29:22Z</time>
      </trkpt>
      <trkpt lat="48.50456" lon="7.1615">
        <ele>730</ele>
        <time>2020-12-20T14:29:58Z</time>
      </trkpt>
      <trkpt lat="48.50465" lon="7.16171">
        <ele>731</ele>
        <time>2020-12-20T14:30:08Z</time>
      </trkpt>
      <trkpt lat="48.50473" lon="7.16229">
        <ele>732</ele>
        <time>2020-12-20T14:30:31Z</time>
      </trkpt>
      <trkpt lat="48.50468" lon="7.16271">
        <ele>733</ele>
        <time>2020-12-20T14:30:50Z</time>
      </trkpt>
      <trkpt lat="48.5042" lon="7.16304">
        <ele>736</ele>
        <time>2020-12-20T14:31:26Z</time>
      </trkpt>
      <trkpt lat="48.50295" lon="7.16412">
        <ele>744</ele>
        <time>2020-12-20T14:32:53Z</time>
      </trkpt>
      <trkpt lat="48.50281" lon="7.16417">
        <ele>743</ele>
        <time>2020-12-20T14:33:01Z</time>
      </trkpt>
      <trkpt lat="48.50108" lon="7.1641">
        <ele>741</ele>
        <time>2020-12-20T14:33:49Z</time>
      </trkpt>
      <trkpt lat="48.50016" lon="7.16385">
        <ele>736</ele>
        <time>2020-12-20T14:34:10Z</time>
      </trkpt>
      <trkpt lat="48.49996" lon="7.16392">
        <ele>734</ele>
        <time>2020-12-20T14:34:15Z</time>
      </trkpt>
      <trkpt lat="48.49981" lon="7.16409">
        <ele>733</ele>
        <time>2020-12-20T14:34:19Z</time>
      </trkpt>
      <trkpt lat="48.49963" lon="7.16446">
        <ele>732</ele>
        <time>2020-12-20T14:34:26Z</time>
      </trkpt>
      <trkpt lat="48.49953" lon="7.16502">
        <ele>731</ele>
        <time>2020-12-20T14:34:35Z</time>
      </trkpt>
      <trkpt lat="48.49957" lon="7.16543">
        <ele>730</ele>
        <time>2020-12-20T14:34:41Z</time>
      </trkpt>
      <trkpt lat="48.49977" lon="7.16641">
        <ele>728</ele>
        <time>2020-12-20T14:35:00Z</time>
      </trkpt>
      <trkpt lat="48.50013" lon="7.167">
        <ele>728</ele>
        <time>2020-12-20T14:35:21Z</time>
      </trkpt>
      <trkpt lat="48.50078" lon="7.16765">
        <ele>731</ele>
        <time>2020-12-20T14:36:02Z</time>
      </trkpt>
      <trkpt lat="48.50115" lon="7.16791">
        <ele>733</ele>
        <time>2020-12-20T14:36:26Z</time>
      </trkpt>
      <trkpt lat="48.50164" lon="7.16792">
        <ele>736</ele>
        <time>2020-12-20T14:36:58Z</time>
      </trkpt>
      <trkpt lat="48.50213" lon="7.16767">
        <ele>738</ele>
        <time>2020-12-20T14:37:31Z</time>
      </trkpt>
      <trkpt lat="48.50236" lon="7.16774">
        <ele>739</ele>
        <time>2020-12-20T14:37:44Z</time>
      </trkpt>
      <trkpt lat="48.50243" lon="7.16783">
        <ele>739</ele>
        <time>2020-12-20T14:37:50Z</time>
      </trkpt>
      <trkpt lat="48.50302" lon="7.16928">
        <ele>744</ele>
        <time>2020-12-20T14:38:47Z</time>
      </trkpt>
      <trkpt lat="48.50315" lon="7.16941">
        <ele>744</ele>
        <time>2020-12-20T14:38:53Z</time>
      </trkpt>
      <trkpt lat="48.50335" lon="7.16941">
        <ele>744</ele>
        <time>2020-12-20T14:39:02Z</time>
      </trkpt>
      <trkpt lat="48.50394" lon="7.16914">
        <ele>744</ele>
        <time>2020-12-20T14:39:25Z</time>
      </trkpt>
      <trkpt lat="48.50436" lon="7.16875">
        <ele>744</ele>
        <time>2020-12-20T14:39:39Z</time>
      </trkpt>
      <trkpt lat="48.5045" lon="7.16868">
        <ele>744</ele>
        <time>2020-12-20T14:39:43Z</time>
      </trkpt>
      <trkpt lat="48.50559" lon="7.16881">
        <ele>736</ele>
        <time>2020-12-20T14:40:09Z</time>
      </trkpt>
      <trkpt lat="48.50563" lon="7.16892">
        <ele>735</ele>
        <time>2020-12-20T14:40:11Z</time>
      </trkpt>
      <trkpt lat="48.50475" lon="7.16973">
        <ele>725</ele>
        <time>2020-12-20T14:40:33Z</time>
      </trkpt>
      <trkpt lat="48.50413" lon="7.17">
        <ele>716</ele>
        <time>2020-12-20T14:40:46Z</time>
      </trkpt>
      <trkpt lat="48.50363" lon="7.17063">
        <ele>708</ele>
        <time>2020-12-20T14:41:00Z</time>
      </trkpt>
      <trkpt lat="48.50337" lon="7.17083">
        <ele>704</ele>
        <time>2020-12-20T14:41:06Z</time>
      </trkpt>
      <trkpt lat="48.50311" lon="7.17092">
        <ele>700</ele>
        <time>2020-12-20T14:41:11Z</time>
      </trkpt>
      <trkpt lat="48.50286" lon="7.17092">
        <ele>697</ele>
        <time>2020-12-20T14:41:16Z</time>
      </trkpt>
      <trkpt lat="48.50261" lon="7.17082">
        <ele>693</ele>
        <time>2020-12-20T14:41:22Z</time>
      </trkpt>
      <trkpt lat="48.5024" lon="7.17066">
        <ele>690</ele>
        <time>2020-12-20T14:41:26Z</time>
      </trkpt>
      <trkpt lat="48.50168" lon="7.16978">
        <ele>677</ele>
        <time>2020-12-20T14:41:45Z</time>
      </trkpt>
      <trkpt lat="48.50041" lon="7.16947">
        <ele>659</ele>
        <time>2020-12-20T14:42:12Z</time>
      </trkpt>
      <trkpt lat="48.49953" lon="7.1689">
        <ele>645</ele>
        <time>2020-12-20T14:42:31Z</time>
      </trkpt>
      <trkpt lat="48.49891" lon="7.16885">
        <ele>636</ele>
        <time>2020-12-20T14:42:44Z</time>
      </trkpt>
      <trkpt lat="48.49837" lon="7.16857">
        <ele>629</ele>
        <time>2020-12-20T14:42:56Z</time>
      </trkpt>
      <trkpt lat="48.49812" lon="7.16827">
        <ele>627</ele>
        <time>2020-12-20T14:43:02Z</time>
      </trkpt>
      <trkpt lat="48.49811" lon="7.16845">
        <ele>626</ele>
        <time>2020-12-20T14:43:05Z</time>
      </trkpt>
      <trkpt lat="48.49874" lon="7.16922">
        <ele>620</ele>
        <time>2020-12-20T14:43:24Z</time>
      </trkpt>
      <trkpt lat="48.49905" lon="7.16938">
        <ele>618</ele>
        <time>2020-12-20T14:43:33Z</time>
      </trkpt>
      <trkpt lat="48.5009" lon="7.17159">
        <ele>622</ele>
        <time>2020-12-20T14:45:07Z</time>
      </trkpt>
      <trkpt lat="48.50218" lon="7.17234">
        <ele>628</ele>
        <time>2020-12-20T14:46:23Z</time>
      </trkpt>
      <trkpt lat="48.50264" lon="7.17282">
        <ele>632</ele>
        <time>2020-12-20T14:47:01Z</time>
      </trkpt>
      <trkpt lat="48.50363" lon="7.17319">
        <ele>640</ele>
        <time>2020-12-20T14:48:16Z</time>
      </trkpt>
      <trkpt lat="48.50513" lon="7.17247">
        <ele>652</ele>
        <time>2020-12-20T14:50:12Z</time>
      </trkpt>
      <trkpt lat="48.50549" lon="7.17237">
        <ele>655</ele>
        <time>2020-12-20T14:50:36Z</time>
      </trkpt>
      <trkpt lat="48.50558" lon="7.17245">
        <ele>655</ele>
        <time>2020-12-20T14:50:43Z</time>
      </trkpt>
      <trkpt lat="48.50574" lon="7.17307">
        <ele>657</ele>
        <time>2020-12-20T14:51:10Z</time>
      </trkpt>
      <trkpt lat="48.5064" lon="7.17352">
        <ele>661</ele>
        <time>2020-12-20T14:51:50Z</time>
      </trkpt>
      <trkpt lat="48.50847" lon="7.17431">
        <ele>666</ele>
        <time>2020-12-20T14:53:24Z</time>
      </trkpt>
      <trkpt lat="48.50924" lon="7.17471">
        <ele>663</ele>
        <time>2020-12-20T14:53:45Z</time>
      </trkpt>
      <trkpt lat="48.50924" lon="7.17485">
        <ele>662</ele>
        <time>2020-12-20T14:53:48Z</time>
      </trkpt>
      <trkpt lat="48.50793" lon="7.17553">
        <ele>655</ele>
        <time>2020-12-20T14:54:19Z</time>
      </trkpt>
      <trkpt lat="48.50676" lon="7.17573">
        <ele>647</ele>
        <time>2020-12-20T14:54:46Z</time>
      </trkpt>
      <trkpt lat="48.50512" lon="7.1758">
        <ele>642</ele>
        <time>2020-12-20T14:55:27Z</time>
      </trkpt>
      <trkpt lat="48.50504" lon="7.17614">
        <ele>641</ele>
        <time>2020-12-20T14:55:41Z</time>
      </trkpt>
      <trkpt lat="48.50498" lon="7.17677">
        <ele>642</ele>
        <time>2020-12-20T14:56:00Z</time>
      </trkpt>
      <trkpt lat="48.50481" lon="7.17753">
        <ele>644</ele>
        <time>2020-12-20T14:56:25Z</time>
      </trkpt>
      <trkpt lat="48.5048" lon="7.17779">
        <ele>645</ele>
        <time>2020-12-20T14:56:35Z</time>
      </trkpt>
      <trkpt lat="48.50475" lon="7.17799">
        <ele>645</ele>
        <time>2020-12-20T14:56:41Z</time>
      </trkpt>
      <trkpt lat="48.50424" lon="7.17898">
        <ele>648</ele>
        <time>2020-12-20T14:57:32Z</time>
      </trkpt>
      <trkpt lat="48.50425" lon="7.18035">
        <ele>652</ele>
        <time>2020-12-20T14:58:15Z</time>
      </trkpt>
      <trkpt lat="48.50427" lon="7.18048">
        <ele>652</ele>
        <time>2020-12-20T14:58:20Z</time>
      </trkpt>
      <trkpt lat="48.50428" lon="7.18141">
        <ele>654</ele>
        <time>2020-12-20T14:58:47Z</time>
      </trkpt>
      <trkpt lat="48.50446" lon="7.18249">
        <ele>658</ele>
        <time>2020-12-20T14:59:28Z</time>
      </trkpt>
      <trkpt lat="48.50435" lon="7.18317">
        <ele>661</ele>
        <time>2020-12-20T14:59:55Z</time>
      </trkpt>
      <trkpt lat="48.50442" lon="7.18359">
        <ele>662</ele>
        <time>2020-12-20T15:00:14Z</time>
      </trkpt>
      <trkpt lat="48.50486" lon="7.18447">
        <ele>667</ele>
        <time>2020-12-20T15:01:06Z</time>
      </trkpt>
      <trkpt lat="48.50492" lon="7.18468">
        <ele>668</ele>
        <time>2020-12-20T15:01:17Z</time>
      </trkpt>
      <trkpt lat="48.50494" lon="7.18497">
        <ele>669</ele>
        <time>2020-12-20T15:01:32Z</time>
      </trkpt>
      <trkpt lat="48.50489" lon="7.18561">
        <ele>672</ele>
        <time>2020-12-20T15:02:04Z</time>
      </trkpt>
      <trkpt lat="48.50464" lon="7.18615">
        <ele>675</ele>
        <time>2020-12-20T15:02:31Z</time>
      </trkpt>
      <trkpt lat="48.50418" lon="7.18675">
        <ele>677</ele>
        <time>2020-12-20T15:03:04Z</time>
      </trkpt>
      <trkpt lat="48.50322" lon="7.18781">
        <ele>678</ele>
        <time>2020-12-20T15:03:43Z</time>
      </trkpt>
      <trkpt lat="48.50269" lon="7.18815">
        <ele>678</ele>
        <time>2020-12-20T15:03:59Z</time>
      </trkpt>
      <trkpt lat="48.50249" lon="7.18862">
        <ele>677</ele>
        <time>2020-12-20T15:04:16Z</time>
      </trkpt>
      <trkpt lat="48.50261" lon="7.18945">
        <ele>674</ele>
        <time>2020-12-20T15:05:11Z</time>
      </trkpt>
      <trkpt lat="48.50269" lon="7.19043">
        <ele>671</ele>
        <time>2020-12-20T15:05:43Z</time>
      </trkpt>
      <trkpt lat="48.50253" lon="7.19158">
        <ele>668</ele>
        <time>2020-12-20T15:06:08Z</time>
      </trkpt>
      <trkpt lat="48.50235" lon="7.1927">
        <ele>662</ele>
        <time>2020-12-20T15:06:54Z</time>
      </trkpt>
      <trkpt lat="48.50259" lon="7.19357">
        <ele>659</ele>
        <time>2020-12-20T15:07:16Z</time>
      </trkpt>
      <trkpt lat="48.50286" lon="7.1944">
        <ele>655</ele>
        <time>2020-12-20T15:07:42Z</time>
      </trkpt>
      <trkpt lat="48.50319" lon="7.19535">
        <ele>649</ele>
        <time>2020-12-20T15:08:16Z</time>
      </trkpt>
      <trkpt lat="48.50309" lon="7.19652">
        <ele>645</ele>
        <time>2020-12-20T15:08:44Z</time>
      </trkpt>
      <trkpt lat="48.50318" lon="7.19863">
        <ele>637</ele>
        <time>2020-12-20T15:09:39Z</time>
      </trkpt>
      <trkpt lat="48.5034" lon="7.19917">
        <ele>630</ele>
        <time>2020-12-20T15:10:23Z</time>
      </trkpt>
      <trkpt lat="48.50437" lon="7.20026">
        <ele>629</ele>
        <time>2020-12-20T15:10:33Z</time>
      </trkpt>
      <trkpt lat="48.50434" lon="7.20052">
        <ele>618</ele>
        <time>2020-12-20T15:11:34Z</time>
      </trkpt>
      <trkpt lat="48.50332" lon="7.1999">
        <ele>612</ele>
        <time>2020-12-20T15:12:09Z</time>
      </trkpt>
      <trkpt lat="48.50293" lon="7.19989">
        <ele>604</ele>
        <time>2020-12-20T15:13:19Z</time>
      </trkpt>
      <trkpt lat="48.5019" lon="7.20073">
        <ele>602</ele>
        <time>2020-12-20T15:13:25Z</time>
      </trkpt>
      <trkpt lat="48.5013" lon="7.20147">
        <ele>601</ele>
        <time>2020-12-20T15:13:30Z</time>
      </trkpt>
      <trkpt lat="48.49914" lon="7.20312">
        <ele>600</ele>
        <time>2020-12-20T15:13:32Z</time>
      </trkpt>
      <trkpt lat="48.49875" lon="7.20226">
        <ele>598</ele>
        <time>2020-12-20T15:13:37Z</time>
      </trkpt>
      <trkpt lat="48.49767" lon="7.20046">
        <ele>597</ele>
        <time>2020-12-20T15:13:43Z</time>
      </trkpt>
      <trkpt lat="48.49714" lon="7.19893">
        <ele>547</ele>
        <time>2020-12-20T15:15:28Z</time>
      </trkpt>
      <trkpt lat="48.49695" lon="7.19888">
        <ele>545</ele>
        <time>2020-12-20T15:15:33Z</time>
      </trkpt>
      <trkpt lat="48.49656" lon="7.19852">
        <ele>541</ele>
        <time>2020-12-20T15:15:42Z</time>
      </trkpt>
      <trkpt lat="48.49627" lon="7.1985">
        <ele>538</ele>
        <time>2020-12-20T15:15:49Z</time>
      </trkpt>
      <trkpt lat="48.49598" lon="7.19867">
        <ele>535</ele>
        <time>2020-12-20T15:15:56Z</time>
      </trkpt>
      <trkpt lat="48.49585" lon="7.19866">
        <ele>534</ele>
        <time>2020-12-20T15:15:58Z</time>
      </trkpt>
      <trkpt lat="48.49533" lon="7.19832">
        <ele>529</ele>
        <time>2020-12-20T15:16:11Z</time>
      </trkpt>
      <trkpt lat="48.49496" lon="7.19845">
        <ele>527</ele>
        <time>2020-12-20T15:16:20Z</time>
      </trkpt>
      <trkpt lat="48.49495" lon="7.19863">
        <ele>527</ele>
        <time>2020-12-20T15:16:23Z</time>
      </trkpt>
      <trkpt lat="48.49521" lon="7.19897">
        <ele>525</ele>
        <time>2020-12-20T15:16:31Z</time>
      </trkpt>
      <trkpt lat="48.49521" lon="7.19898">
        <ele>524</ele>
        <time>2020-12-20T15:16:43Z</time>
      </trkpt>
      <trkpt lat="48.4953" lon="7.1996">
        <ele>523</ele>
        <time>2020-12-20T15:16:50Z</time>
      </trkpt>
      <trkpt lat="48.49494" lon="7.20054">
        <ele>522</ele>
        <time>2020-12-20T15:16:56Z</time>
      </trkpt>
      <trkpt lat="48.49458" lon="7.20141">
        <ele>523</ele>
        <time>2020-12-20T15:17:35Z</time>
      </trkpt>
      <trkpt lat="48.49462" lon="7.20179">
        <ele>524</ele>
        <time>2020-12-20T15:18:04Z</time>
      </trkpt>
      <trkpt lat="48.49482" lon="7.2021">
        <ele>525</ele>
        <time>2020-12-20T15:18:11Z</time>
      </trkpt>
      <trkpt lat="48.49464" lon="7.2022">
        <ele>525</ele>
        <time>2020-12-20T15:18:25Z</time>
      </trkpt>
      <trkpt lat="48.49421" lon="7.20153">
        <ele>525</ele>
        <time>2020-12-20T15:18:32Z</time>
      </trkpt>
      <trkpt lat="48.49368" lon="7.20063">
        <ele>525</ele>
        <time>2020-12-20T15:18:35Z</time>
      </trkpt>
      <trkpt lat="48.49364" lon="7.20029">
        <ele>525</ele>
        <time>2020-12-20T15:18:42Z</time>
      </trkpt>
      <trkpt lat="48.49312" lon="7.1999">
        <ele>525</ele>
        <time>2020-12-20T15:18:48Z</time>
      </trkpt>
      <trkpt lat="48.49248" lon="7.20006">
        <ele>524</ele>
        <time>2020-12-20T15:19:18Z</time>
      </trkpt>
      <trkpt lat="48.49202" lon="7.19994">
        <ele>505</ele>
        <time>2020-12-20T15:20:03Z</time>
      </trkpt>
      <trkpt lat="48.49114" lon="7.20025">
        <ele>504</ele>
        <time>2020-12-20T15:20:05Z</time>
      </trkpt>
      <trkpt lat="48.49044" lon="7.20052">
        <ele>500</ele>
        <time>2020-12-20T15:20:10Z</time>
      </trkpt>
      <trkpt lat="48.48959" lon="7.20039">
        <ele>480</ele>
        <time>2020-12-20T15:20:33Z</time>
      </trkpt>
      <trkpt lat="48.48854" lon="7.19986">
        <ele>475</ele>
        <time>2020-12-20T15:20:40Z</time>
      </trkpt>
      <trkpt lat="48.48793" lon="7.1997">
        <ele>457</ele>
        <time>2020-12-20T15:21:02Z</time>
      </trkpt>
      <trkpt lat="48.4874" lon="7.19934">
        <ele>422</ele>
        <time>2020-12-20T15:21:56Z</time>
      </trkpt>
      <trkpt lat="48.48724" lon="7.19894">
        <ele>420</ele>
        <time>2020-12-20T15:21:58Z</time>
      </trkpt>
      <trkpt lat="48.48683" lon="7.19893">
        <ele>405</ele>
        <time>2020-12-20T15:22:19Z</time>
      </trkpt>
      <trkpt lat="48.4863" lon="7.19925">
        <ele>382</ele>
        <time>2020-12-20T15:22:47Z</time>
      </trkpt>
      <trkpt lat="48.48596" lon="7.19957">
        <ele>375</ele>
        <time>2020-12-20T15:22:55Z</time>
      </trkpt>
      <trkpt lat="48.48532" lon="7.1995">
        <ele>362</ele>
        <time>2020-12-20T15:23:13Z</time>
      </trkpt>
      <trkpt lat="48.48504" lon="7.19929">
        <ele>390.6</ele>
      </trkpt>
      <trkpt lat="48.48431" lon="7.19933">
        <ele>378.9</ele>
      </trkpt>
      <trkpt lat="48.48388" lon="7.19913">
        <ele>374.4</ele>
      </trkpt>
      <trkpt lat="48.48331" lon="7.19827">
        <ele>367.7</ele>
      </trkpt>
      <trkpt lat="48.48304" lon="7.19712">
        <ele>364</ele>
      </trkpt>
      <trkpt lat="48.4828" lon="7.19621">
        <ele>360</ele>
      </trkpt>
      <trkpt lat="48.48269" lon="7.19581">
        <ele>358.5</ele>
      </trkpt>
      <trkpt lat="48.48267" lon="7.19531">
        <ele>359.2</ele>
      </trkpt>
      <trkpt lat="48.48264" lon="7.19559">
        <ele>357.6</ele>
      </trkpt>
      <trkpt lat="48.48265" lon="7.19612">
        <ele>351</ele>
        <time>2020-12-20T15:23:28Z</time>
      </trkpt>
      <trkpt lat="48.48277" lon="7.19704">
        <ele>351.9</ele>
      </trkpt>
      <trkpt lat="48.48289" lon="7.1979">
        <ele>351.2</ele>
      </trkpt>
      <trkpt lat="48.48299" lon="7.19856">
        <ele>350.5</ele>
      </trkpt>
      <trkpt lat="48.48305" lon="7.19981">
        <ele>347</ele>
        <time>2020-12-20T15:23:35Z</time>
      </trkpt>
      <trkpt lat="48.48299" lon="7.20022">
        <ele>345</ele>
        <time>2020-12-20T15:23:37Z</time>
      </trkpt>
      <trkpt lat="48.48295" lon="7.20083">
        <ele>344</ele>
        <time>2020-12-20T15:23:43Z</time>
      </trkpt>
      <trkpt lat="48.48246" lon="7.20392">
        <ele>332</ele>
        <time>2020-12-20T15:24:15Z</time>
      </trkpt>
      <trkpt lat="48.48201" lon="7.20652">
        <ele>328</ele>
        <time>2020-12-20T15:24:42Z</time>
      </trkpt>
      <trkpt lat="48.48108" lon="7.20943">
        <ele>322</ele>
        <time>2020-12-20T15:25:13Z</time>
      </trkpt>
      <trkpt lat="48.48084" lon="7.21031">
        <ele>320</ele>
        <time>2020-12-20T15:25:22Z</time>
      </trkpt>
      <trkpt lat="48.48091" lon="7.21041">
        <ele>320</ele>
        <time>2020-12-20T15:25:24Z</time>
      </trkpt>
      <trkpt lat="48.48119" lon="7.21105">
        <ele>319</ele>
        <time>2020-12-20T15:25:32Z</time>
      </trkpt>
      <trkpt lat="48.48152" lon="7.21332">
        <ele>316</ele>
        <time>2020-12-20T15:25:58Z</time>
      </trkpt>
      <trkpt lat="48.4816" lon="7.21367">
        <ele>316</ele>
        <time>2020-12-20T15:26:01Z</time>
      </trkpt>
      <trkpt lat="48.48172" lon="7.2137">
        <ele>316</ele>
        <time>2020-12-20T15:26:04Z</time>
      </trkpt>
      <trkpt lat="48.48198" lon="7.21434">
        <ele>315</ele>
        <time>2020-12-20T15:26:13Z</time>
      </trkpt>
      <trkpt lat="48.48231" lon="7.2149">
        <ele>313</ele>
        <time>2020-12-20T15:26:37Z</time>
      </trkpt>
      <trkpt lat="48.48287" lon="7.21531">
        <ele>311</ele>
        <time>2020-12-20T15:27:04Z</time>
      </trkpt>
      <trkpt lat="48.4831" lon="7.21617">
        <ele>311</ele>
        <time>2020-12-20T15:27:06Z</time>
      </trkpt>
      <trkpt lat="48.48328" lon="7.21614">
        <ele>311</ele>
        <time>2020-12-20T15:27:11Z</time>
      </trkpt>
      <trkpt lat="48.48356" lon="7.21676">
        <ele>310</ele>
        <time>2020-12-20T15:27:20Z</time>
      </trkpt>
      <trkpt lat="48.48382" lon="7.21702">
        <ele>309</ele>
        <time>2020-12-20T15:27:28Z</time>
      </trkpt>
      <trkpt lat="48.48439" lon="7.2173">
        <ele>338.1</ele>
      </trkpt>
      <trkpt lat="48.48472" lon="7.21781">
        <ele>338.7</ele>
      </trkpt>
      <trkpt lat="48.48502" lon="7.21829">
        <ele>336.6</ele>
      </trkpt>
      <trkpt lat="48.4855" lon="7.21858">
        <ele>335.5</ele>
      </trkpt>
      <trkpt lat="48.48609" lon="7.21879">
        <ele>332.4</ele>
      </trkpt>
      <trkpt lat="48.48639" lon="7.21911">
        <ele>329.6</ele>
      </trkpt>
      <trkpt lat="48.48658" lon="7.21962">
        <ele>326.4</ele>
      </trkpt>
      <trkpt lat="48.48666" lon="7.22079">
        <ele>324</ele>
      </trkpt>
      <trkpt lat="48.48689" lon="7.22146">
        <ele>325.1</ele>
      </trkpt>
      <trkpt lat="48.48675" lon="7.22158">
        <ele>320.2</ele>
      </trkpt>
      <trkpt lat="48.48648" lon="7.22105">
        <ele>319.1</ele>
      </trkpt>
      <trkpt lat="48.48645" lon="7.22109">
        <ele>318.2</ele>
      </trkpt>
      <trkpt lat="48.48693" lon="7.22239">
        <ele>320</ele>
      </trkpt>
      <trkpt lat="48.4869" lon="7.22241">
        <ele>319</ele>
      </trkpt>
      <trkpt lat="48.48631" lon="7.22125">
        <ele>314.7</ele>
      </trkpt>
      <trkpt lat="48.4863" lon="7.22128">
        <ele>314.4</ele>
      </trkpt>
      <trkpt lat="48.48677" lon="7.22262">
        <ele>314.5</ele>
      </trkpt>
      <trkpt lat="48.48673" lon="7.22261">
        <ele>313.3</ele>
      </trkpt>
      <trkpt lat="48.48612" lon="7.2214">
        <ele>311</ele>
      </trkpt>
      <trkpt lat="48.48661" lon="7.22288">
        <ele>310.1</ele>
      </trkpt>
      <trkpt lat="48.48653" lon="7.22368">
        <ele>307.5</ele>
      </trkpt>
      <trkpt lat="48.48701" lon="7.22533">
        <ele>307.4</ele>
      </trkpt>
      <trkpt lat="48.48651" lon="7.22552">
        <ele>302</ele>
      </trkpt>
      <trkpt lat="48.48608" lon="7.22481">
        <ele>301.6</ele>
      </trkpt>
      <trkpt lat="48.485" lon="7.22395">
        <ele>302</ele>
      </trkpt>
      <trkpt lat="48.48349" lon="7.22267">
        <ele>302.7</ele>
      </trkpt>
      <trkpt lat="48.48212" lon="7.22156">
        <ele>305</ele>
      </trkpt>
      <trkpt lat="48.48174" lon="7.22117">
        <ele>305.8</ele>
      </trkpt>
      <trkpt lat="48.48173" lon="7.22">
        <ele>309</ele>
        <time>2020-12-20T15:27:30Z</time>
      </trkpt>
      <trkpt lat="48.48203" lon="7.21971">
        <ele>309</ele>
        <time>2020-12-20T15:27:31Z</time>
      </trkpt>
      <trkpt lat="48.48199" lon="7.21947">
        <ele>309</ele>
        <time>2020-12-20T15:27:46Z</time>
      </trkpt>
      <trkpt lat="48.48186" lon="7.21945">
        <ele>309</ele>
        <time>2020-12-20T15:27:49Z</time>
      </trkpt>
      <trkpt lat="48.48179" lon="7.21958">
        <ele>309</ele>
        <time>2020-12-20T15:27:52Z</time>
      </trkpt>
      <trkpt lat="48.48175" lon="7.21979">
        <ele>309</ele>
        <time>2020-12-20T15:27:56Z</time>
      </trkpt>
      <trkpt lat="48.48169" lon="7.21988">
        <ele>309</ele>
        <time>2020-12-20T15:27:58Z</time>
      </trkpt>
      <trkpt lat="48.48165" lon="7.22005">
        <ele>309</ele>
        <time>2020-12-20T15:28:02Z</time>
      </trkpt>
      <trkpt lat="48.48167" lon="7.22109">
        <ele>310</ele>
        <time>2020-12-20T15:28:25Z</time>
      </trkpt>
      <trkpt lat="48.48161" lon="7.22124">
        <ele>311</ele>
        <time>2020-12-20T15:28:31Z</time>
      </trkpt>
      <trkpt lat="48.48132" lon="7.22157">
        <ele>312</ele>
        <time>2020-12-20T15:28:44Z</time>
      </trkpt>
      <trkpt lat="48.48141" lon="7.2217">
        <ele>312</ele>
        <time>2020-12-20T15:28:48Z</time>
      </trkpt>
      <trkpt lat="48.48143" lon="7.22194">
        <ele>313</ele>
        <time>2020-12-20T15:28:54Z</time>
      </trkpt>
      <trkpt lat="48.48179" lon="7.22291">
        <ele>315</ele>
        <time>2020-12-20T15:29:22Z</time>
      </trkpt>
      <trkpt lat="48.48188" lon="7.22339">
        <ele>316</ele>
        <time>2020-12-20T15:29:34Z</time>
      </trkpt>
      <trkpt lat="48.4817" lon="7.22528">
        <ele>319</ele>
        <time>2020-12-20T15:30:10Z</time>
      </trkpt>
      <trkpt lat="48.48138" lon="7.22664">
        <ele>322</ele>
        <time>2020-12-20T15:30:42Z</time>
      </trkpt>
      <trkpt lat="48.4809" lon="7.22841">
        <ele>327</ele>
        <time>2020-12-20T15:31:33Z</time>
      </trkpt>
      <trkpt lat="48.48083" lon="7.22859">
        <ele>328</ele>
        <time>2020-12-20T15:31:38Z</time>
      </trkpt>
      <trkpt lat="48.48076" lon="7.22867">
        <ele>328</ele>
        <time>2020-12-20T15:31:43Z</time>
      </trkpt>
      <trkpt lat="48.47979" lon="7.22919">
        <ele>333</ele>
        <time>2020-12-20T15:32:28Z</time>
      </trkpt>
      <trkpt lat="48.47843" lon="7.22952">
        <ele>341</ele>
        <time>2020-12-20T15:33:34Z</time>
      </trkpt>
      <trkpt lat="48.47783" lon="7.22949">
        <ele>345</ele>
        <time>2020-12-20T15:34:04Z</time>
      </trkpt>
      <trkpt lat="48.47786" lon="7.22972">
        <ele>346</ele>
        <time>2020-12-20T15:34:12Z</time>
      </trkpt>
      <trkpt lat="48.47778" lon="7.2298">
        <ele>346</ele>
        <time>2020-12-20T15:34:17Z</time>
      </trkpt>
      <trkpt lat="48.47737" lon="7.22992">
        <ele>349</ele>
        <time>2020-12-20T15:34:41Z</time>
      </trkpt>
      <trkpt lat="48.47722" lon="7.23015">
        <ele>350</ele>
        <time>2020-12-20T15:34:51Z</time>
      </trkpt>
      <trkpt lat="48.47667" lon="7.23032">
        <ele>354</ele>
        <time>2020-12-20T15:35:23Z</time>
      </trkpt>
      <trkpt lat="48.47614" lon="7.23034">
        <ele>357</ele>
        <time>2020-12-20T15:35:51Z</time>
      </trkpt>
      <trkpt lat="48.47607" lon="7.23039">
        <ele>358</ele>
        <time>2020-12-20T15:35:55Z</time>
      </trkpt>
      <trkpt lat="48.47589" lon="7.23079">
        <ele>360</ele>
        <time>2020-12-20T15:36:11Z</time>
      </trkpt>
      <trkpt lat="48.47587" lon="7.23144">
        <ele>362</ele>
        <time>2020-12-20T15:36:32Z</time>
      </trkpt>
      <trkpt lat="48.47555" lon="7.23209">
        <ele>365</ele>
        <time>2020-12-20T15:36:59Z</time>
      </trkpt>
      <trkpt lat="48.47538" lon="7.23294">
        <ele>369</ele>
        <time>2020-12-20T15:37:29Z</time>
      </trkpt>
      <trkpt lat="48.47527" lon="7.23388">
        <ele>372</ele>
        <time>2020-12-20T15:37:58Z</time>
      </trkpt>
      <trkpt lat="48.47492" lon="7.23485">
        <ele>377</ele>
        <time>2020-12-20T15:38:30Z</time>
      </trkpt>
      <trkpt lat="48.47447" lon="7.23564">
        <ele>382</ele>
        <time>2020-12-20T15:39:09Z</time>
      </trkpt>
      <trkpt lat="48.47425" lon="7.23592">
        <ele>384</ele>
        <time>2020-12-20T15:39:27Z</time>
      </trkpt>
      <trkpt lat="48.47388" lon="7.23612">
        <ele>387</ele>
        <time>2020-12-20T15:39:51Z</time>
      </trkpt>
      <trkpt lat="48.47375" lon="7.23614">
        <ele>388</ele>
        <time>2020-12-20T15:39:58Z</time>
      </trkpt>
      <trkpt lat="48.47303" lon="7.23724">
        <ele>397</ele>
        <time>2020-12-20T15:41:08Z</time>
      </trkpt>
      <trkpt lat="48.47272" lon="7.23812">
        <ele>403</ele>
        <time>2020-12-20T15:41:57Z</time>
      </trkpt>
      <trkpt lat="48.47188" lon="7.24006">
        <ele>416</ele>
        <time>2020-12-20T15:43:31Z</time>
      </trkpt>
      <trkpt lat="48.47168" lon="7.24112">
        <ele>422</ele>
        <time>2020-12-20T15:44:12Z</time>
      </trkpt>
      <trkpt lat="48.47126" lon="7.24183">
        <ele>427</ele>
        <time>2020-12-20T15:44:46Z</time>
      </trkpt>
      <trkpt lat="48.47045" lon="7.24275">
        <ele>436</ele>
        <time>2020-12-20T15:45:50Z</time>
      </trkpt>
      <trkpt lat="48.47004" lon="7.24304">
        <ele>440</ele>
        <time>2020-12-20T15:46:22Z</time>
      </trkpt>
      <trkpt lat="48.4695" lon="7.2433">
        <ele>446</ele>
        <time>2020-12-20T15:47:02Z</time>
      </trkpt>
      <trkpt lat="48.46942" lon="7.24334">
        <ele>447</ele>
        <time>2020-12-20T15:47:11Z</time>
      </trkpt>
      <trkpt lat="48.46893" lon="7.24375">
        <ele>453</ele>
        <time>2020-12-20T15:47:51Z</time>
      </trkpt>
      <trkpt lat="48.46879" lon="7.24397">
        <ele>455</ele>
        <time>2020-12-20T15:48:08Z</time>
      </trkpt>
      <trkpt lat="48.46867" lon="7.2443">
        <ele>457</ele>
        <time>2020-12-20T15:48:26Z</time>
      </trkpt>
      <trkpt lat="48.46851" lon="7.24532">
        <ele>463</ele>
        <time>2020-12-20T15:49:16Z</time>
      </trkpt>
      <trkpt lat="48.46856" lon="7.24573">
        <ele>466</ele>
        <time>2020-12-20T15:49:30Z</time>
      </trkpt>
      <trkpt lat="48.4687" lon="7.24622">
        <ele>469</ele>
        <time>2020-12-20T15:49:50Z</time>
      </trkpt>
      <trkpt lat="48.46873" lon="7.24658">
        <ele>471</ele>
        <time>2020-12-20T15:50:05Z</time>
      </trkpt>
      <trkpt lat="48.46866" lon="7.24708">
        <ele>473</ele>
        <time>2020-12-20T15:50:25Z</time>
      </trkpt>
      <trkpt lat="48.46846" lon="7.24777">
        <ele>477</ele>
        <time>2020-12-20T15:50:54Z</time>
      </trkpt>
      <trkpt lat="48.46829" lon="7.24804">
        <ele>479</ele>
        <time>2020-12-20T15:51:09Z</time>
      </trkpt>
      <trkpt lat="48.46802" lon="7.24827">
        <ele>481</ele>
        <time>2020-12-20T15:51:26Z</time>
      </trkpt>
      <trkpt lat="48.46781" lon="7.24836">
        <ele>482</ele>
        <time>2020-12-20T15:51:36Z</time>
      </trkpt>
      <trkpt lat="48.46682" lon="7.24822">
        <ele>488</ele>
        <time>2020-12-20T15:52:26Z</time>
      </trkpt>
      <trkpt lat="48.46632" lon="7.24808">
        <ele>490</ele>
        <time>2020-12-20T15:52:48Z</time>
      </trkpt>
      <trkpt lat="48.46598" lon="7.2481">
        <ele>492</ele>
        <time>2020-12-20T15:53:01Z</time>
      </trkpt>
      <trkpt lat="48.4651" lon="7.24862">
        <ele>497</ele>
        <time>2020-12-20T15:53:36Z</time>
      </trkpt>
      <trkpt lat="48.46482" lon="7.24881">
        <ele>499</ele>
        <time>2020-12-20T15:53:48Z</time>
      </trkpt>
      <trkpt lat="48.46419" lon="7.2495">
        <ele>503</ele>
        <time>2020-12-20T15:54:34Z</time>
      </trkpt>
      <trkpt lat="48.46372" lon="7.25046">
        <ele>511</ele>
        <time>2020-12-20T15:55:31Z</time>
      </trkpt>
      <trkpt lat="48.46342" lon="7.25132">
        <ele>518</ele>
        <time>2020-12-20T15:56:21Z</time>
      </trkpt>
      <trkpt lat="48.4629" lon="7.25392">
        <ele>536</ele>
        <time>2020-12-20T15:58:35Z</time>
      </trkpt>
      <trkpt lat="48.46285" lon="7.25422">
        <ele>544</ele>
        <time>2020-12-20T15:59:23Z</time>
      </trkpt>
      <trkpt lat="48.46251" lon="7.25582">
        <ele>552</ele>
        <time>2020-12-20T16:00:37Z</time>
      </trkpt>
      <trkpt lat="48.46227" lon="7.25635">
        <ele>555</ele>
        <time>2020-12-20T16:01:02Z</time>
      </trkpt>
      <trkpt lat="48.46164" lon="7.25717">
        <ele>565</ele>
        <time>2020-12-20T16:02:18Z</time>
      </trkpt>
      <trkpt lat="48.46148" lon="7.25724">
        <ele>567</ele>
        <time>2020-12-20T16:02:34Z</time>
      </trkpt>
      <trkpt lat="48.46136" lon="7.25718">
        <ele>569</ele>
        <time>2020-12-20T16:02:45Z</time>
      </trkpt>
      <trkpt lat="48.46132" lon="7.25704">
        <ele>570</ele>
        <time>2020-12-20T16:02:55Z</time>
      </trkpt>
      <trkpt lat="48.46139" lon="7.25617">
        <ele>577</ele>
        <time>2020-12-20T16:03:53Z</time>
      </trkpt>
      <trkpt lat="48.46156" lon="7.25547">
        <ele>584</ele>
        <time>2020-12-20T16:04:44Z</time>
      </trkpt>
      <trkpt lat="48.46159" lon="7.25516">
        <ele>587</ele>
        <time>2020-12-20T16:05:07Z</time>
      </trkpt>
      <trkpt lat="48.46139" lon="7.25396">
        <ele>599</ele>
        <time>2020-12-20T16:06:36Z</time>
      </trkpt>
      <trkpt lat="48.46142" lon="7.25286">
        <ele>607</ele>
        <time>2020-12-20T16:07:47Z</time>
      </trkpt>
      <trkpt lat="48.4612" lon="7.25187">
        <ele>614</ele>
        <time>2020-12-20T16:08:47Z</time>
      </trkpt>
      <trkpt lat="48.46099" lon="7.25114">
        <ele>620</ele>
        <time>2020-12-20T16:09:26Z</time>
      </trkpt>
      <trkpt lat="48.45994" lon="7.24874">
        <ele>627</ele>
        <time>2020-12-20T16:11:03Z</time>
      </trkpt>
      <trkpt lat="48.45924" lon="7.24818">
        <ele>629</ele>
        <time>2020-12-20T16:11:35Z</time>
      </trkpt>
      <trkpt lat="48.45898" lon="7.24804">
        <ele>629</ele>
        <time>2020-12-20T16:11:46Z</time>
      </trkpt>
      <trkpt lat="48.45889" lon="7.24778">
        <ele>630</ele>
        <time>2020-12-20T16:11:54Z</time>
      </trkpt>
      <trkpt lat="48.45891" lon="7.24751">
        <ele>630</ele>
        <time>2020-12-20T16:12:01Z</time>
      </trkpt>
      <trkpt lat="48.45906" lon="7.24704">
        <ele>631</ele>
        <time>2020-12-20T16:12:15Z</time>
      </trkpt>
      <trkpt lat="48.45947" lon="7.24614">
        <ele>631</ele>
        <time>2020-12-20T16:12:38Z</time>
      </trkpt>
      <trkpt lat="48.45949" lon="7.24593">
        <ele>631</ele>
        <time>2020-12-20T16:12:42Z</time>
      </trkpt>
      <trkpt lat="48.45929" lon="7.24483">
        <ele>631</ele>
        <time>2020-12-20T16:13:06Z</time>
      </trkpt>
      <trkpt lat="48.45932" lon="7.24469">
        <ele>631</ele>
        <time>2020-12-20T16:13:09Z</time>
      </trkpt>
      <trkpt lat="48.45964" lon="7.24431">
        <ele>631</ele>
        <time>2020-12-20T16:13:23Z</time>
      </trkpt>
      <trkpt lat="48.4599" lon="7.24376">
        <ele>632</ele>
        <time>2020-12-20T16:13:39Z</time>
      </trkpt>
      <trkpt lat="48.46006" lon="7.24369">
        <ele>633</ele>
        <time>2020-12-20T16:13:44Z</time>
      </trkpt>
      <trkpt lat="48.46049" lon="7.24369">
        <ele>634</ele>
        <time>2020-12-20T16:14:02Z</time>
      </trkpt>
      <trkpt lat="48.46072" lon="7.24338">
        <ele>634</ele>
        <time>2020-12-20T16:14:22Z</time>
      </trkpt>
      <trkpt lat="48.46083" lon="7.24298">
        <ele>636</ele>
        <time>2020-12-20T16:14:42Z</time>
      </trkpt>
      <trkpt lat="48.46062" lon="7.24186">
        <ele>641</ele>
        <time>2020-12-20T16:15:29Z</time>
      </trkpt>
      <trkpt lat="48.46069" lon="7.24157">
        <ele>642</ele>
        <time>2020-12-20T16:15:41Z</time>
      </trkpt>
      <trkpt lat="48.46076" lon="7.24146">
        <ele>643</ele>
        <time>2020-12-20T16:15:51Z</time>
      </trkpt>
      <trkpt lat="48.46126" lon="7.24099">
        <ele>647</ele>
        <time>2020-12-20T16:16:29Z</time>
      </trkpt>
      <trkpt lat="48.46196" lon="7.23999">
        <ele>656</ele>
        <time>2020-12-20T16:17:42Z</time>
      </trkpt>
      <trkpt lat="48.46211" lon="7.23978">
        <ele>658</ele>
        <time>2020-12-20T16:17:57Z</time>
      </trkpt>
      <trkpt lat="48.46273" lon="7.23923">
        <ele>665</ele>
        <time>2020-12-20T16:18:57Z</time>
      </trkpt>
      <trkpt lat="48.46281" lon="7.23892">
        <ele>667</ele>
        <time>2020-12-20T16:19:14Z</time>
      </trkpt>
      <trkpt lat="48.4628" lon="7.2388">
        <ele>668</ele>
        <time>2020-12-20T16:19:23Z</time>
      </trkpt>
      <trkpt lat="48.46273" lon="7.23886">
        <ele>669</ele>
        <time>2020-12-20T16:19:32Z</time>
      </trkpt>
      <trkpt lat="48.46246" lon="7.23893">
        <ele>672</ele>
        <time>2020-12-20T16:19:55Z</time>
      </trkpt>
      <trkpt lat="48.46196" lon="7.23883">
        <ele>678</ele>
        <time>2020-12-20T16:20:43Z</time>
      </trkpt>
      <trkpt lat="48.46156" lon="7.23893">
        <ele>682</ele>
        <time>2020-12-20T16:21:20Z</time>
      </trkpt>
      <trkpt lat="48.46123" lon="7.23931">
        <ele>686</ele>
        <time>2020-12-20T16:21:58Z</time>
      </trkpt>
      <trkpt lat="48.46093" lon="7.23954">
        <ele>689</ele>
        <time>2020-12-20T16:22:25Z</time>
      </trkpt>
      <trkpt lat="48.46008" lon="7.2404">
        <ele>698</ele>
        <time>2020-12-20T16:23:39Z</time>
      </trkpt>
      <trkpt lat="48.4595" lon="7.24128">
        <ele>701</ele>
        <time>2020-12-20T16:24:26Z</time>
      </trkpt>
      <trkpt lat="48.45867" lon="7.24168">
        <ele>703</ele>
        <time>2020-12-20T16:24:59Z</time>
      </trkpt>
      <trkpt lat="48.45801" lon="7.24229">
        <ele>703</ele>
        <time>2020-12-20T16:25:21Z</time>
      </trkpt>
      <trkpt lat="48.45752" lon="7.24249">
        <ele>703</ele>
        <time>2020-12-20T16:25:34Z</time>
      </trkpt>
      <trkpt lat="48.45673" lon="7.24256">
        <ele>702</ele>
        <time>2020-12-20T16:26:00Z</time>
      </trkpt>
      <trkpt lat="48.45597" lon="7.24297">
        <ele>704</ele>
        <time>2020-12-20T16:26:30Z</time>
      </trkpt>
      <trkpt lat="48.45509" lon="7.24323">
        <ele>706</ele>
        <time>2020-12-20T16:27:13Z</time>
      </trkpt>
      <trkpt lat="48.45406" lon="7.2431">
        <ele>711</ele>
        <time>2020-12-20T16:28:09Z</time>
      </trkpt>
      <trkpt lat="48.45383" lon="7.24307">
        <ele>712</ele>
        <time>2020-12-20T16:28:21Z</time>
      </trkpt>
      <trkpt lat="48.45485" lon="7.24401">
        <ele>718</ele>
        <time>2020-12-20T16:29:16Z</time>
      </trkpt>
      <trkpt lat="48.45533" lon="7.24426">
        <ele>721</ele>
        <time>2020-12-20T16:29:43Z</time>
      </trkpt>
      <trkpt lat="48.45561" lon="7.24455">
        <ele>723</ele>
        <time>2020-12-20T16:30:01Z</time>
      </trkpt>
      <trkpt lat="48.45571" lon="7.24485">
        <ele>725</ele>
        <time>2020-12-20T16:30:15Z</time>
      </trkpt>
      <trkpt lat="48.45571" lon="7.24518">
        <ele>726</ele>
        <time>2020-12-20T16:30:28Z</time>
      </trkpt>
      <trkpt lat="48.45562" lon="7.24528">
        <ele>727</ele>
        <time>2020-12-20T16:30:34Z</time>
      </trkpt>
      <trkpt lat="48.4555" lon="7.24529">
        <ele>727</ele>
        <time>2020-12-20T16:30:40Z</time>
      </trkpt>
      <trkpt lat="48.45522" lon="7.24513">
        <ele>729</ele>
        <time>2020-12-20T16:30:57Z</time>
      </trkpt>
      <trkpt lat="48.45512" lon="7.24516">
        <ele>730</ele>
        <time>2020-12-20T16:31:02Z</time>
      </trkpt>
      <trkpt lat="48.45502" lon="7.24525">
        <ele>730</ele>
        <time>2020-12-20T16:31:09Z</time>
      </trkpt>
      <trkpt lat="48.4553" lon="7.24588">
        <ele>733</ele>
        <time>2020-12-20T16:31:31Z</time>
      </trkpt>
      <trkpt lat="48.45551" lon="7.24672">
        <ele>759</ele>
        <time>2020-12-20T16:55:18Z</time>
      </trkpt>
      <trkpt lat="48.45516" lon="7.24698">
        <ele>760</ele>
        <time>2020-12-20T16:55:26Z</time>
      </trkpt>
      <trkpt lat="48.4547" lon="7.24636">
        <ele>762</ele>
        <time>2020-12-20T16:55:53Z</time>
      </trkpt>
      <trkpt lat="48.45485" lon="7.24688">
        <ele>766</ele>
        <time>2020-12-20T16:56:21Z</time>
      </trkpt>
      <trkpt lat="48.45488" lon="7.24717">
        <ele>767</ele>
        <time>2020-12-20T16:56:35Z</time>
      </trkpt>
      <trkpt lat="48.45465" lon="7.24901">
        <ele>778</ele>
        <time>2020-12-20T16:58:16Z</time>
      </trkpt>
      <trkpt lat="48.45449" lon="7.25214">
        <ele>798</ele>
        <time>2020-12-20T17:01:05Z</time>
      </trkpt>
      <trkpt lat="48.45445" lon="7.25286">
        <ele>801</ele>
        <time>2020-12-20T17:01:39Z</time>
      </trkpt>
      <trkpt lat="48.4546" lon="7.25316">
        <ele>788</ele>
      </trkpt>
      <trkpt lat="48.45441" lon="7.25306">
        <ele>805</ele>
        <time>2020-12-20T17:02:12Z</time>
      </trkpt>
      <trkpt lat="48.45442" lon="7.25356">
        <ele>794.1</ele>
      </trkpt>
    </trkseg>
  </trk>
</gpx>